YYYY MM/DD hh:mm	Temp	Humid	W_dir	W_spd	Barom	T_int	Light	Power	Temp2	P2	Snow	T_mid	T_base	Precip
Year Date  Time 	(F)	(%)	(Deg)	(MPH)	("Hg)	(F)	/1000	(V)	(F)	-	(")	(F)	(F)	(")
2024 05/12 00:00	52.5	64.6	267.3	10.2	30.37	80.6	0.0	12.99	-101.7	0	56.9	50.6	50.2	1873564	2566	0	0	0	62.5	51.5	0.0
2024 05/12 00:15	52.5	64.3	265.8	10.6	30.36	80.4	0.0	13.02	-103.1	0	56.7	50.6	49.4	1873564	2566	0	0	0	62.0	51.3	0.0
2024 05/12 00:30	52.7	64.4	262.3	10.4	30.36	80.2	0.0	13.01	-104.5	0	-997.0	-997.0	49.0	1873564	2566	0	0	0	61.5	51.2	0.0
2024 05/12 00:45	52.8	63.8	260.6	11.4	30.36	80.0	0.0	13.00	-105.7	0	56.6	51.5	50.1	1873564	2566	0	0	0	61.0	51.0	0.0
2024 05/12 01:00	52.8	64.4	231.0	10.8	30.36	79.8	0.0	13.02	-107.0	0	56.9	51.5	47.2	1873564	2566	0	0	0	60.3	50.7	0.0
2024 05/12 01:15	53.5	63.4	230.7	12.5	30.36	79.6	0.0	13.00	-108.3	0	56.0	51.5	46.9	1873564	2566	0	0	0	59.7	50.4	0.0
2024 05/12 01:30	53.9	62.9	239.1	11.8	30.35	79.4	0.0	13.03	-109.1	0	-997.0	-997.0	45.8	1873564	2566	0	0	0	59.4	50.3	0.0
2024 05/12 01:45	53.8	62.7	225.1	12.2	30.35	79.1	0.0	13.02	-110.1	0	56.6	50.6	46.3	1873564	2566	0	0	0	59.2	50.2	0.0
2024 05/12 02:00	52.9	64.8	219.7	13.9	30.34	78.9	0.0	13.01	-110.8	0	56.7	50.6	47.7	1873564	2566	0	0	0	59.2	50.2	0.0
2024 05/12 02:15	53.8	63.4	226.6	15.2	30.33	78.7	0.0	13.00	-111.5	0	56.7	50.6	49.8	1873564	2566	0	0	0	57.8	49.7	0.0
2024 05/12 02:30	54.6	61.8	246.7	16.1	30.32	78.5	0.0	13.01	-112.3	0	-997.0	-997.0	49.3	1873564	2566	0	0	0	57.8	49.7	0.0
2024 05/12 02:45	55.0	63.6	247.7	15.9	30.32	78.3	0.0	12.99	-112.8	0	56.6	50.6	49.4	1873564	2566	0	0	0	57.2	49.4	0.0
2024 05/12 03:00	53.9	63.7	234.0	16.1	30.32	78.2	0.0	12.99	-113.4	0	56.7	50.6	49.8	1873564	2566	0	0	0	56.5	49.2	0.0
2024 05/12 03:15	53.9	62.8	237.0	16.2	30.32	78.1	0.0	12.99	-113.7	0	56.4	49.7	49.7	1873564	2566	0	0	0	56.2	49.0	0.0
2024 05/12 03:30	53.3	64.5	241.4	19.4	30.31	77.9	0.0	13.01	-114.4	0	-997.0	-997.0	49.8	1873564	2566	0	0	0	55.8	48.8	0.0
2024 05/12 03:45	53.4	63.6	232.1	17.9	30.31	77.7	0.0	12.99	-114.8	0	56.2	48.8	49.5	1873564	2566	0	0	0	55.6	48.7	0.0
2024 05/12 04:00	53.2	65.5	237.0	17.9	30.31	77.6	0.0	12.99	-115.5	0	56.1	48.8	49.5	1873564	2566	0	0	0	55.4	48.6	0.0
2024 05/12 04:15	53.0	65.9	246.7	16.2	30.31	77.4	0.0	13.01	-116.1	0	56.4	48.8	48.5	1873564	2566	0	0	0	54.8	48.3	0.0
2024 05/12 04:30	52.5	66.3	247.6	16.8	30.31	77.2	0.0	12.99	-116.7	0	-997.0	-997.0	46.8	1873564	2566	0	0	0	54.5	48.2	0.0
2024 05/12 04:45	51.2	69.8	251.2	14.8	30.31	77.2	0.0	13.02	-117.2	0	56.6	48.8	46.2	1873564	2566	0	0	0	54.3	48.0	0.0
2024 05/12 05:00	51.2	68.9	269.9	15.5	30.31	77.0	0.0	13.02	-117.8	0	56.6	48.8	47.0	1873564	2566	0	0	0	53.8	47.8	0.0
2024 05/12 05:15	50.1	71.4	280.0	10.6	30.31	76.8	4.7	13.02	-118.4	0	56.4	47.9	46.9	1873564	2566	0	0	0	53.8	47.8	0.0
2024 05/12 05:30	49.6	72.3	210.3	9.7	30.30	76.6	42.7	12.99	-119.1	0	-997.0	-997.0	47.2	1873564	2566	0	0	0	53.3	47.5	0.0
2024 05/12 05:45	50.5	72.6	276.4	8.6	30.30	76.4	202.5	13.02	-119.9	0	56.6	47.9	47.0	1873564	2566	0	0	0	53.3	47.2	0.0
2024 05/12 06:00	49.3	70.8	274.9	12.2	30.30	76.1	449.7	13.01	-120.6	0	56.5	47.9	47.6	1873564	2566	0	0	0	53.2	47.2	0.0
2024 05/12 06:15	49.4	69.5	295.5	9.8	30.30	75.9	547.7	13.00	-121.3	0	56.5	48.8	47.8	1873564	2566	0	0	0	52.8	47.0	0.0
2024 05/12 06:30	49.5	69.8	229.5	9.3	30.30	75.7	577.6	13.00	-122.0	0	-997.0	-997.0	48.6	1873564	2566	0	0	0	53.0	46.8	0.0
2024 05/12 06:45	49.6	68.2	255.8	11.1	30.30	75.5	647.1	13.01	-122.7	0	56.4	50.6	48.6	1873564	2566	0	0	0	52.7	46.8	0.0
2024 05/12 07:00	49.4	69.3	272.1	8.7	30.29	75.3	704.0	13.03	-123.1	0	56.1	50.6	49.8	1873564	2566	0	0	0	52.4	46.7	0.0
2024 05/12 07:15	49.4	69.8	274.3	8.0	30.29	75.1	729.0	13.02	-123.5	0	56.1	52.4	49.4	1873564	2566	0	0	0	52.3	46.6	0.0
2024 05/12 07:30	49.5	69.6	272.7	8.9	30.29	74.9	751.0	13.01	-124.0	0	-997.0	-997.0	49.8	1873564	2566	0	0	0	52.3	46.6	0.0
2024 05/12 07:45	50.0	68.4	332.4	9.1	30.29	74.6	765.0	13.00	-124.2	0	56.0	55.1	50.5	1873564	2566	0	0	0	51.9	46.6	0.0
2024 05/12 08:00	50.7	67.7	273.1	8.3	30.29	74.6	775.0	13.00	-124.5	0	55.9	56.0	52.8	1873564	2566	0	0	0	53.0	46.7	0.0
2024 05/12 08:15	50.8	67.0	283.5	10.8	30.30	74.4	781.0	13.02	-124.6	0	55.8	56.9	54.2	1873564	2566	0	0	0	53.7	47.0	0.0
2024 05/12 08:30	51.1	58.3	259.4	11.5	30.30	74.4	788.0	12.99	-124.9	0	-997.0	-997.0	55.1	1873564	2566	0	0	0	54.3	47.2	0.0
2024 05/12 08:45	51.6	58.7	310.6	5.3	30.30	74.2	794.0	13.01	-124.9	0	55.5	56.9	56.1	1873564	2566	0	0	0	54.7	47.5	0.0
2024 05/12 09:00	51.7	58.5	274.1	8.7	30.30	74.2	799.0	13.02	-125.0	0	55.9	56.9	56.9	1873564	2566	0	0	0	55.8	47.9	0.0
2024 05/12 09:15	52.1	57.2	296.1	5.8	30.30	74.2	804.0	13.01	-125.0	0	55.0	56.0	57.5	1873564	2566	0	0	0	57.6	48.9	0.0
2024 05/12 09:30	52.4	55.2	274.3	10.4	30.30	74.2	809.0	13.03	-125.0	0	-997.0	-997.0	57.7	1873564	2566	0	0	0	58.6	49.7	0.0
2024 05/12 09:45	53.0	54.7	285.2	7.9	30.30	74.2	813.0	12.99	-124.9	0	56.0	56.9	58.6	1873564	2566	0	0	0	59.3	50.2	0.0
2024 05/12 10:00	53.6	48.0	273.5	11.3	30.30	74.1	819.0	13.00	-124.9	0	55.2	57.8	59.5	1873564	2566	0	0	0	61.1	51.5	0.0
2024 05/12 10:15	53.5	49.7	255.4	12.1	30.30	74.2	827.0	13.01	-124.7	0	56.0	57.8	60.2	1873564	2566	0	0	0	63.0	52.8	0.0
2024 05/12 10:30	53.8	51.1	269.4	12.8	30.30	74.2	836.0	12.99	-124.6	0	-997.0	-997.0	60.6	1873564	2566	0	0	0	64.0	53.5	0.0
2024 05/12 10:45	54.4	48.8	268.4	13.8	30.31	74.2	844.0	13.02	-124.5	0	56.1	58.7	61.4	1873564	2566	0	0	0	65.0	54.3	0.0
2024 05/12 11:00	56.3	49.6	288.6	10.6	30.31	74.2	849.0	13.02	-124.2	0	55.8	59.6	61.9	1873564	2566	0	0	0	65.0	54.3	0.0
2024 05/12 11:15	55.7	47.6	245.7	9.8	30.31	74.2	851.0	13.02	-124.0	0	55.9	60.5	62.4	1873564	2566	0	0	0	65.0	54.3	0.0
2024 05/12 11:30	57.1	40.5	243.2	12.1	30.30	74.4	852.0	12.99	-123.8	0	-997.0	-997.0	63.4	1873564	2566	0	0	0	65.0	54.3	0.0
2024 05/12 11:45	56.5	41.3	290.5	16.4	30.30	74.4	852.0	13.02	-123.5	0	55.4	62.3	64.2	1873564	2566	0	0	0	65.0	54.3	0.0
2024 05/12 12:00	57.7	44.4	213.3	8.5	30.31	74.6	852.0	13.00	-123.1	0	55.6	62.3	64.7	1873564	2566	0	0	0	65.0	54.3	0.0
2024 05/12 12:15	57.4	42.1	228.9	13.2	30.31	74.6	851.0	12.99	-122.8	0	55.6	62.3	65.1	1873564	2566	0	0	0	65.0	54.3	0.0
2024 05/12 12:30	59.5	40.2	301.9	7.9	30.31	74.9	850.0	12.99	-122.4	0	-997.0	-997.0	66.3	1873564	2566	0	0	0	65.0	54.3	0.0
2024 05/12 12:45	58.9	38.5	273.4	13.9	30.31	74.9	849.0	12.99	-122.0	0	55.3	64.1	66.8	1873564	2566	0	0	0	65.0	54.3	0.0
2024 05/12 13:00	59.3	37.0	277.2	6.4	30.31	75.1	847.0	13.02	-121.8	0	55.3	64.1	67.3	1873564	2566	0	0	0	76.0	59.6	0.0
2024 05/12 13:15	59.6	39.2	289.2	10.8	30.31	75.2	845.0	13.02	-121.4	0	55.1	64.1	66.9	1873564	2566	0	0	0	77.0	59.9	0.0
2024 05/12 13:30	59.5	40.8	319.5	7.1	30.31	75.3	846.0	13.00	-120.9	0	-997.0	-997.0	67.7	1873564	2566	0	0	0	77.5	60.1	0.0
2024 05/12 13:45	59.8	38.3	308.5	10.2	30.31	75.5	849.0	13.03	-120.6	0	54.9	65.9	67.7	1873564	2566	0	0	0	78.2	60.2	0.0
2024 05/12 14:00	61.2	40.6	172.9	4.5	30.31	75.6	850.0	12.99	-120.1	0	-997.0	-997.0	67.3	1873564	2566	0	0	0	78.5	60.3	0.0
2024 05/12 14:15	60.4	37.9	285.8	11.9	30.31	75.7	850.0	13.03	-119.6	0	54.6	65.0	67.9	1873564	2566	0	0	0	78.8	60.3	0.0
2024 05/12 14:30	59.9	42.1	298.2	7.2	30.31	75.9	848.0	13.00	-119.1	0	-997.0	-997.0	67.6	1873564	2566	0	0	0	78.8	60.3	0.0
2024 05/12 14:45	60.6	41.4	189.0	7.2	30.31	76.1	844.0	13.00	-118.6	0	54.2	65.9	67.4	1873564	2566	0	0	0	79.1	60.3	0.0
2024 05/12 15:00	60.2	42.9	294.1	8.2	30.32	76.1	840.0	13.02	-118.1	0	54.0	64.1	68.8	1873564	2566	0	0	0	79.1	60.1	0.0
2024 05/12 15:15	60.6	40.8	343.5	7.4	30.32	76.4	837.0	12.99	-117.5	0	53.9	64.1	68.5	1873564	2566	0	0	0	79.0	59.9	0.0
2024 05/12 15:30	59.9	40.2	290.7	10.4	30.31	76.6	834.0	12.99	-117.0	0	-997.0	-997.0	70.0	1873564	2566	0	0	0	78.8	59.7	0.0
2024 05/12 15:45	60.7	40.1	121.7	12.4	30.31	76.8	832.0	13.03	-116.3	0	54.3	65.0	71.2	1873564	2566	0	0	0	79.1	59.5	0.0
2024 05/12 16:00	60.0	43.3	281.4	9.5	30.31	76.8	830.0	13.02	-115.6	0	53.3	64.1	72.2	1873564	2566	0	0	0	78.6	59.3	0.0
2024 05/12 16:15	60.4	43.7	113.0	6.4	30.31	77.0	826.0	13.03	-114.7	0	53.4	64.1	72.3	1873564	2566	0	0	0	78.5	59.2	0.0
2024 05/12 16:30	59.9	45.6	208.7	9.7	30.31	77.2	823.0	13.00	-113.9	0	-997.0	-997.0	72.6	1873564	2566	0	0	0	79.2	59.1	0.0
2024 05/12 16:45	59.6	45.7	11.5	9.9	30.32	77.4	819.0	13.03	-113.0	0	53.6	63.2	72.7	1873564	2566	0	0	0	79.8	59.0	0.0
2024 05/12 17:00	59.4	44.5	164.3	7.9	30.31	77.6	812.0	13.01	-112.0	0	53.9	62.3	75.9	1873564	2566	0	0	0	79.8	58.8	0.0
2024 05/12 17:15	58.5	41.6	139.7	13.1	30.32	77.9	806.0	13.01	-110.9	0	53.6	62.3	74.0	1873564	2566	0	0	0	79.6	58.7	0.0
2024 05/12 17:30	58.6	41.0	241.4	6.2	30.31	78.2	796.0	13.02	-109.8	0	-997.0	-997.0	75.0	1873564	2566	0	0	0	79.5	58.6	0.0
2024 05/12 17:45	58.5	38.7	313.6	14.7	30.31	78.5	785.0	13.00	-108.7	0	53.4	61.4	76.2	1873564	2566	0	0	0	79.8	58.5	0.0
2024 05/12 18:00	57.8	37.3	248.8	10.5	30.32	78.7	775.0	12.99	-107.6	0	52.5	61.4	80.4	1873564	2566	0	0	0	79.5	58.4	0.0
2024 05/12 18:15	57.5	35.2	264.3	14.7	30.31	78.9	756.0	13.00	-106.3	0	53.2	61.4	79.5	1873564	2566	0	0	0	78.9	58.0	0.0
2024 05/12 18:30	57.3	34.2	282.1	12.6	30.32	79.1	735.0	12.99	-105.1	0	-997.0	-997.0	83.4	1873564	2566	0	0	0	78.5	57.9	0.0
2024 05/12 18:45	56.6	34.1	216.0	16.8	30.32	79.4	714.0	12.99	-103.7	0	53.2	59.6	76.6	1873564	2566	0	0	0	78.0	57.7	0.0
2024 05/12 19:00	57.1	34.4	288.3	8.8	30.32	79.6	699.3	13.01	-102.6	0	53.1	57.8	64.8	1873564	2566	0	0	0	77.3	57.4	0.0
2024 05/12 19:15	55.4	34.5	308.7	11.2	30.32	79.8	671.2	13.01	-101.5	0	53.4	56.9	58.7	1873564	2566	0	0	0	76.5	57.2	0.0
2024 05/12 19:30	54.4	34.7	209.5	11.1	30.32	80.0	620.7	12.99	-100.8	0	-997.0	-997.0	55.7	1873564	2566	0	0	0	75.7	56.9	0.0
2024 05/12 19:45	53.8	40.4	282.8	10.8	30.32	80.2	630.8	12.99	-100.2	0	53.4	55.1	54.0	1873564	2566	0	0	0	74.7	56.6	0.0
2024 05/12 20:00	52.7	50.5	120.0	8.7	30.33	80.4	511.1	13.04	-99.8	0	53.6	53.3	51.3	1873564	2566	0	0	0	73.9	56.2	0.0
2024 05/12 20:15	51.6	57.1	305.4	8.0	30.33	80.5	371.0	12.99	-99.6	0	53.1	52.4	50.4	1873564	2566	0	0	0	72.9	56.0	0.0
2024 05/12 20:30	50.5	63.1	291.5	10.5	30.34	80.6	80.7	13.00	-99.1	0	-997.0	-997.0	49.6	1873564	2566	0	0	0	72.2	55.8	0.0
2024 05/12 20:45	50.7	67.6	295.2	13.9	30.34	80.6	15.6	13.02	-99.0	0	53.6	49.7	49.6	1873564	2566	0	0	0	71.3	55.5	0.0
2024 05/12 21:00	49.0	70.1	140.5	12.7	30.34	80.7	1.4	13.01	-99.2	0	53.4	48.8	48.9	1873564	2566	0	0	0	70.3	55.2	0.0
2024 05/12 21:15	48.4	72.2	251.5	14.9	30.35	80.7	0.0	13.00	-99.8	0	53.2	47.9	50.3	1873564	2566	0	0	0	69.3	54.9	0.0
2024 05/12 21:30	47.7	74.5	235.2	11.8	30.36	80.6	0.0	13.01	-100.4	0	-997.0	-997.0	50.7	1873564	2566	0	0	0	69.0	54.8	0.0
2024 05/12 21:45	47.5	72.7	312.1	10.8	30.36	80.6	0.0	12.99	-101.2	0	53.4	47.0	50.3	1873564	2566	0	0	0	67.6	54.5	0.0
2024 05/12 22:00	47.3	71.5	353.9	9.2	30.36	80.6	0.0	13.03	-102.0	0	53.4	47.0	49.9	1873564	2566	0	0	0	66.7	54.1	0.0
2024 05/12 22:15	46.7	72.9	275.5	7.2	30.36	80.5	0.0	13.02	-103.0	0	53.4	46.1	48.7	1873564	2566	0	0	0	65.8	53.9	0.0
2024 05/12 22:30	46.6	73.5	345.8	8.7	30.36	80.4	0.0	13.00	-104.2	0	-997.0	-997.0	48.3	1873564	2566	0	0	0	65.1	53.5	0.0
2024 05/12 22:45	46.1	75.3	309.4	5.5	30.36	80.2	0.0	12.99	-105.4	0	53.6	45.2	47.9	1873564	2566	0	0	0	64.6	53.3	0.0
2024 05/12 23:00	45.8	75.8	54.7	6.9	30.36	80.0	0.0	13.01	-106.7	0	53.3	45.2	47.9	1873564	2566	0	0	0	63.7	53.0	0.0
2024 05/12 23:15	46.2	74.7	282.7	8.7	30.36	79.8	0.0	13.02	-108.0	0	53.4	45.2	48.3	1873564	2566	0	0	0	62.9	52.8	0.0
2024 05/12 23:30	46.8	73.2	285.4	11.9	30.35	79.6	0.0	13.03	-109.2	0	-997.0	-997.0	48.6	1873564	2566	0	0	0	62.9	52.7	0.0
2024 05/12 23:45	46.3	74.1	278.5	12.0	30.35	79.4	0.0	13.00	-110.4	0	53.8	45.2	48.7	1873564	2566	0	0	0	61.8	52.3	0.0
2024 05/13 00:00	46.2	75.2	280.7	14.0	30.34	79.1	0.0	13.00	-111.7	0	53.5	45.2	48.6	1873564	2566	0	0	0	61.2	52.1	0.0
2024 05/13 00:15	45.5	78.0	285.1	12.1	30.34	78.9	0.0	12.99	-112.8	0	53.3	44.3	48.0	1873564	2566	0	0	0	61.0	52.0	0.0
2024 05/13 00:30	45.1	77.8	338.5	9.8	30.34	78.7	0.0	13.00	-113.7	0	-997.0	-997.0	47.7	1873564	2566	0	0	0	60.1	51.7	0.0
2024 05/13 00:45	45.0	78.3	289.6	10.9	30.34	78.5	0.0	13.01	-114.7	0	53.4	45.2	47.5	1873564	2566	0	0	0	59.6	51.4	0.0
2024 05/13 01:00	45.0	78.5	305.6	10.2	30.34	78.3	0.0	13.01	-115.6	0	53.8	44.3	47.5	1873564	2566	0	0	0	58.8	51.2	0.0
2024 05/13 01:15	44.3	80.5	278.8	7.2	30.34	78.1	0.0	13.01	-116.4	0	54.0	43.4	46.8	1873564	2566	0	0	0	58.4	51.1	0.0
2024 05/13 01:30	44.5	80.1	265.1	10.2	30.34	77.8	0.0	13.01	-117.4	0	-997.0	-997.0	47.0	1873564	2566	0	0	0	57.9	50.9	0.0
2024 05/13 01:45	44.5	80.0	270.2	9.8	30.33	77.5	0.0	12.99	-118.1	0	53.5	43.4	47.2	1873564	2566	0	0	0	57.7	50.9	0.0
2024 05/13 02:00	44.5	79.6	293.7	9.4	30.32	77.2	0.0	13.03	-118.9	0	53.4	43.4	47.2	1873564	2566	0	0	0	57.0	50.5	0.0
2024 05/13 02:15	44.3	80.2	285.9	9.4	30.32	77.0	0.0	13.02	-119.7	0	53.7	43.4	47.4	1873564	2566	0	0	0	57.0	50.5	0.0
2024 05/13 02:30	44.1	77.1	279.5	7.9	30.31	76.8	0.0	13.02	-120.5	0	-997.0	-997.0	47.0	1873564	2566	0	0	0	56.7	50.3	0.0
2024 05/13 02:45	44.4	75.1	284.9	8.6	30.31	76.6	0.0	12.99	-121.3	0	53.3	44.3	46.7	1873564	2566	0	0	0	55.9	50.0	0.0
2024 05/13 03:00	44.9	73.1	290.5	11.2	30.30	76.1	0.0	13.00	-122.0	0	53.4	44.3	47.0	1873564	2566	0	0	0	55.9	50.0	0.0
2024 05/13 03:15	44.6	74.6	279.5	12.0	30.30	75.9	0.0	13.00	-122.8	0	53.6	43.4	47.4	1873564	2566	0	0	0	55.7	49.7	0.0
2024 05/13 03:30	44.6	73.5	249.7	11.1	30.30	75.7	0.0	13.01	-123.5	0	-997.0	-997.0	47.5	1873564	2566	0	0	0	55.4	49.5	0.0
2024 05/13 03:45	45.0	75.9	249.3	11.5	30.30	75.3	0.0	13.02	-124.1	0	53.4	45.2	46.6	1873564	2566	0	0	0	55.1	49.4	0.0
2024 05/13 04:00	44.7	78.0	232.4	11.2	30.30	75.1	0.0	13.03	-124.7	0	53.5	45.2	46.0	1873564	2566	0	0	0	55.0	49.3	0.0
2024 05/13 04:15	45.1	78.5	243.1	11.8	30.30	74.9	0.0	13.01	-125.3	0	53.2	44.3	44.5	1873564	2566	0	0	0	55.0	49.0	0.0
2024 05/13 04:30	44.5	76.3	275.9	9.3	30.30	74.6	0.0	13.01	-125.8	0	-997.0	-997.0	45.3	1873564	2566	0	0	0	54.8	48.9	0.0
2024 05/13 04:45	44.4	76.4	271.0	10.2	30.30	74.2	0.0	12.99	-126.3	0	53.3	43.4	46.2	1873564	2566	0	0	0	54.2	48.7	0.0
2024 05/13 05:00	43.5	81.3	279.6	10.0	30.29	74.0	0.0	13.01	-126.8	0	53.6	43.4	46.1	1873564	2566	0	0	0	53.8	48.6	0.0
2024 05/13 05:15	43.3	82.4	277.9	9.4	30.29	73.8	2.0	12.99	-127.3	0	53.3	42.5	45.0	1873564	2566	0	0	0	53.7	48.4	0.0
2024 05/13 05:30	42.9	83.1	269.4	9.2	30.29	73.6	25.8	12.99	-127.8	0	-997.0	-997.0	43.0	1873564	2566	0	0	0	53.4	48.4	0.0
2024 05/13 05:45	43.8	84.2	265.2	9.4	30.29	73.2	125.5	13.01	-128.2	0	53.6	41.6	41.2	1873564	2566	0	0	0	53.0	48.2	0.0
2024 05/13 06:00	42.8	82.0	274.8	8.2	30.29	72.9	305.6	13.02	-128.5	0	53.5	41.6	41.1	1873564	2566	0	0	0	52.3	47.8	0.0
2024 05/13 06:15	43.6	81.6	261.7	7.3	30.28	72.7	488.7	12.99	-128.9	0	53.4	43.4	41.3	1873564	2566	0	0	0	52.1	47.8	0.0
2024 05/13 06:30	43.5	75.2	279.9	9.4	30.28	72.5	526.4	12.99	-129.3	0	-997.0	-997.0	41.8	1873564	2566	0	0	0	51.7	47.6	0.0
2024 05/13 06:45	43.0	77.4	275.3	9.2	30.28	72.3	578.3	13.00	-129.6	0	53.0	45.2	43.1	1873564	2566	0	0	0	51.3	47.4	0.0
2024 05/13 07:00	43.5	70.5	279.2	7.3	30.28	72.1	623.4	13.03	-129.9	0	53.3	45.2	43.9	1873564	2566	0	0	0	51.0	47.2	0.0
2024 05/13 07:15	43.9	70.6	268.7	4.2	30.29	71.9	651.2	13.02	-130.1	0	53.2	47.0	45.6	1873564	2566	0	0	0	51.0	47.2	0.0
2024 05/13 07:30	44.3	68.8	282.8	3.6	30.29	71.6	676.6	13.02	-130.4	0	-997.0	-997.0	45.8	1873564	2566	0	0	0	51.5	47.1	0.0
2024 05/13 07:45	44.3	67.0	288.1	4.8	30.28	71.4	692.2	13.02	-130.5	0	52.8	50.6	47.5	1873564	2566	0	0	0	51.0	47.1	0.0
2024 05/13 08:00	43.6	76.9	291.2	6.6	30.29	71.4	703.0	13.02	-130.7	0	52.7	49.7	49.5	1873564	2566	0	0	0	51.0	47.1	0.0
2024 05/13 08:15	44.3	75.1	284.0	6.4	30.29	71.2	710.0	13.00	-130.8	0	53.1	48.8	50.7	1873564	2566	0	0	0	51.0	47.1	0.0
2024 05/13 08:30	45.4	65.9	280.4	4.0	30.29	71.1	717.0	13.03	-130.8	0	-997.0	-997.0	51.5	1873564	2566	0	0	0	52.5	47.4	0.0
2024 05/13 08:45	45.8	65.9	316.6	2.5	30.30	71.0	726.0	13.01	-131.0	0	52.4	51.5	52.3	1873564	2566	0	0	0	53.3	47.7	0.0
2024 05/13 09:00	45.7	68.2	264.8	2.9	30.29	71.0	733.0	13.01	-131.0	0	52.8	51.5	52.9	1873564	2566	0	0	0	54.3	48.0	0.0
2024 05/13 09:15	46.3	68.5	299.8	4.4	30.30	70.8	739.0	13.03	-131.0	0	52.9	50.6	53.5	1873564	2566	0	0	0	54.6	48.2	0.0
2024 05/13 09:30	46.7	66.7	299.1	5.8	30.30	70.8	746.0	13.02	-131.0	0	-997.0	-997.0	54.6	1873564	2566	0	0	0	56.0	49.0	0.0
2024 05/13 09:45	47.8	59.8	267.1	4.4	30.30	70.8	754.0	13.02	-131.0	0	52.3	52.4	54.8	1873564	2566	0	0	0	57.7	50.2	0.0
2024 05/13 10:00	48.3	64.2	257.5	3.9	30.30	70.8	763.0	13.02	-131.0	0	52.4	52.4	55.3	1873564	2566	0	0	0	59.0	51.1	0.0
2024 05/13 10:15	48.0	60.9	298.6	8.2	30.30	70.8	775.0	13.02	-131.0	0	52.3	53.3	56.0	1873564	2566	0	0	0	59.3	51.3	0.0
2024 05/13 10:30	48.5	61.5	300.9	4.7	30.30	70.8	787.0	13.01	-130.8	0	-997.0	-997.0	56.6	1873564	2566	0	0	0	61.2	52.7	0.0
2024 05/13 10:45	48.0	61.2	316.9	8.1	30.30	70.8	798.0	13.00	-130.8	0	51.9	53.3	56.6	1873564	2566	0	0	0	62.8	53.5	0.0
2024 05/13 11:00	50.7	61.5	287.0	6.0	30.30	70.8	801.0	13.02	-130.7	0	52.2	54.2	56.8	1873564	2566	0	0	0	64.6	54.3	0.0
2024 05/13 11:15	50.6	60.4	247.8	7.5	30.30	70.9	804.0	13.02	-130.5	0	52.4	55.1	57.5	1873564	2566	0	0	0	65.7	54.9	0.0
2024 05/13 11:30	50.5	61.1	299.9	5.3	30.30	71.0	806.0	13.01	-130.4	0	-997.0	-997.0	58.7	1873564	2566	0	0	0	65.9	55.2	0.0
2024 05/13 11:45	52.3	55.4	295.4	6.0	30.30	71.0	807.0	12.99	-130.1	0	51.9	57.8	58.8	1873564	2566	0	0	0	68.1	56.1	0.0
2024 05/13 12:00	51.2	55.1	312.0	10.7	30.31	71.2	808.0	13.00	-130.0	0	52.4	56.9	60.3	1873564	2566	0	0	0	69.1	56.7	0.0
2024 05/13 12:15	51.3	55.3	333.2	15.5	30.31	71.2	807.0	13.01	-129.7	0	51.9	56.9	61.1	1873564	2566	0	0	0	70.1	57.3	0.0
2024 05/13 12:30	53.6	51.8	350.1	7.7	30.31	71.4	805.0	12.99	-129.5	0	-997.0	-997.0	61.4	1873564	2566	0	0	0	70.6	57.6	0.0
2024 05/13 12:45	53.3	51.1	296.9	6.6	30.31	71.5	805.0	12.99	-129.3	0	52.2	56.9	61.3	1873564	2566	0	0	0	71.5	57.9	0.0
2024 05/13 13:00	52.9	54.7	265.5	7.3	30.31	71.6	801.0	13.02	-128.9	0	51.7	57.8	62.4	1873564	2566	0	0	0	72.1	58.3	0.0
2024 05/13 13:15	51.7	53.2	307.8	10.8	30.31	71.9	796.0	13.02	-128.6	0	51.0	58.7	62.7	1873564	2566	0	0	0	73.1	58.5	0.0
2024 05/13 13:30	53.2	48.8	319.6	9.3	30.31	71.9	802.0	12.99	-128.3	0	-997.0	-997.0	63.1	1873564	2566	0	0	0	73.4	58.6	0.0
2024 05/13 13:45	52.2	52.1	305.9	18.1	30.31	72.1	809.0	12.99	-128.0	0	51.2	58.7	64.5	1873564	2566	0	0	0	73.9	58.8	0.0
2024 05/13 14:00	54.5	52.0	328.8	11.2	30.31	72.3	812.0	13.02	-127.7	0	51.0	60.5	64.1	1873564	2566	0	0	0	74.6	58.8	0.0
2024 05/13 14:15	52.7	52.8	265.8	9.4	30.31	72.3	813.0	13.01	-127.4	0	51.0	60.5	64.5	1873564	2566	0	0	0	74.9	59.1	0.0
2024 05/13 14:30	54.9	52.6	277.3	10.9	30.31	72.5	773.0	13.02	-127.2	0	-997.0	-997.0	62.9	1873564	2566	0	0	0	75.6	59.0	0.0
2024 05/13 14:45	55.6	53.5	320.8	5.8	30.31	72.7	806.0	13.02	-126.9	0	50.5	59.6	64.2	1873564	2566	0	0	0	75.9	58.8	0.0
2024 05/13 15:00	53.0	58.2	303.2	13.1	30.31	72.9	815.0	13.01	-126.7	0	51.0	57.8	61.5	1873564	2566	0	0	0	75.8	58.6	0.0
2024 05/13 15:15	55.7	57.4	275.4	8.7	30.31	72.9	806.0	13.03	-126.3	0	51.0	58.7	64.3	1873564	2566	0	0	0	76.0	58.3	0.0
2024 05/13 15:30	52.8	62.1	303.2	12.0	30.31	73.1	719.0	13.02	-126.0	0	-997.0	-997.0	63.8	1873564	2566	0	0	0	75.4	58.3	0.0
2024 05/13 15:45	53.6	59.6	314.0	13.1	30.31	73.4	801.0	13.01	-125.6	0	51.1	57.8	63.8	1873564	2566	0	0	0	75.5	58.0	0.0
2024 05/13 16:00	54.8	59.5	289.8	8.2	30.31	73.6	788.0	13.03	-125.1	0	50.8	57.8	65.7	1873564	2566	0	0	0	75.5	57.9	0.0
2024 05/13 16:15	54.9	61.3	220.9	12.2	30.31	73.8	794.0	13.03	-124.6	0	50.1	57.8	66.0	1873564	2566	0	0	0	75.0	57.8	0.0
2024 05/13 16:30	53.8	59.8	271.0	7.7	30.31	74.0	798.0	13.00	-124.1	0	-997.0	-997.0	66.3	1873564	2566	0	0	0	75.3	57.8	0.0
2024 05/13 16:45	54.0	60.8	263.4	8.9	30.31	74.2	775.0	13.01	-123.6	0	50.5	57.8	68.1	1873564	2566	0	0	0	75.9	57.7	0.0
2024 05/13 17:00	53.3	62.7	309.2	10.4	30.31	74.4	772.0	13.02	-123.0	0	49.6	56.0	68.4	1873564	2566	0	0	0	76.3	57.6	0.0
2024 05/13 17:15	53.3	62.7	250.0	11.4	30.32	74.6	766.0	13.00	-122.3	0	50.0	56.9	67.5	1873564	2566	0	0	0	76.4	57.5	0.0
2024 05/13 17:30	51.2	64.8	245.3	17.3	30.32	74.9	650.8	13.02	-121.7	0	-997.0	-997.0	64.1	1873564	2566	0	0	0	76.3	57.4	0.0
2024 05/13 17:45	52.2	63.5	246.3	8.5	30.33	75.1	651.9	12.99	-120.9	0	50.4	55.1	68.7	1873564	2566	0	0	0	75.7	57.2	0.0
2024 05/13 18:00	52.9	63.6	243.4	10.7	30.32	75.3	737.0	13.00	-120.2	0	50.2	56.0	71.9	1873564	2566	0	0	0	75.5	57.2	0.0
2024 05/13 18:15	50.7	65.6	309.9	12.1	30.32	75.5	494.5	13.01	-119.5	0	50.4	55.1	74.2	1873564	2566	0	0	0	75.7	57.0	0.0
2024 05/13 18:30	51.2	64.3	311.3	8.8	30.33	75.8	684.8	13.01	-118.8	0	-997.0	-997.0	69.9	1873564	2566	0	0	0	75.4	56.9	0.0
2024 05/13 18:45	50.7	64.9	211.7	9.1	30.33	75.9	663.4	13.02	-118.3	0	50.2	53.3	72.9	1873564	2566	0	0	0	74.8	56.7	0.0
2024 05/13 19:00	49.6	68.0	299.5	12.1	30.34	76.1	458.9	12.99	-117.8	0	50.2	52.4	62.7	1873564	2566	0	0	0	74.0	56.6	0.0
2024 05/13 19:15	49.6	67.8	217.6	7.9	30.34	76.4	647.8	13.03	-117.2	0	49.7	51.5	58.2	1873564	2566	0	0	0	73.0	56.4	0.0
2024 05/13 19:30	48.9	68.7	248.4	5.9	30.34	76.6	583.3	13.01	-116.8	0	-997.0	-997.0	55.9	1873564	2566	0	0	0	72.2	56.1	0.0
2024 05/13 19:45	48.3	68.2	197.6	10.5	30.34	76.7	601.7	12.99	-116.4	0	50.3	49.7	53.9	1873564	2566	0	0	0	71.2	55.8	0.0
2024 05/13 20:00	47.3	68.2	322.2	11.7	30.35	76.8	519.2	13.00	-115.9	0	50.3	47.9	52.6	1873564	2566	0	0	0	70.4	55.5	0.0
2024 05/13 20:15	46.4	69.7	307.5	14.1	30.35	77.0	375.1	13.02	-115.8	0	50.1	47.0	50.6	1873564	2566	0	0	0	69.4	55.2	0.0
2024 05/13 20:30	46.0	70.6	322.1	13.7	30.35	77.0	80.4	13.01	-115.6	0	-997.0	-997.0	49.7	1873564	2566	0	0	0	68.9	54.9	0.0
2024 05/13 20:45	45.5	70.7	318.7	15.4	30.36	77.2	14.9	13.02	-115.3	0	50.3	44.3	47.8	1873564	2566	0	0	0	67.8	54.7	0.0
2024 05/13 21:00	44.9	71.1	314.5	12.4	30.37	77.2	1.7	13.03	-115.1	0	50.5	43.4	47.0	1873564	2566	0	0	0	67.6	54.6	0.0
2024 05/13 21:15	44.9	71.2	312.5	15.3	30.37	77.2	0.0	13.02	-115.0	0	50.2	43.4	46.5	1873564	2566	0	0	0	65.9	53.9	0.0
2024 05/13 21:30	44.6	72.2	304.3	13.1	30.36	77.2	0.0	12.99	-115.0	0	-997.0	-997.0	47.5	1873564	2566	0	0	0	65.6	53.9	0.0
2024 05/13 21:45	44.4	73.1	300.6	14.8	30.36	77.2	0.0	12.99	-115.3	0	50.3	42.5	47.8	1873564	2566	0	0	0	65.6	53.9	0.0
2024 05/13 22:00	43.6	75.4	299.3	11.5	30.37	77.2	0.0	13.01	-115.7	0	50.6	42.5	47.9	1873564	2566	0	0	0	65.6	53.9	0.0
2024 05/13 22:15	43.1	78.8	308.2	10.0	30.37	77.2	0.0	13.00	-115.9	0	50.6	42.5	47.4	1873564	2566	0	0	0	62.8	52.9	0.0
2024 05/13 22:30	42.9	82.8	297.6	11.5	30.36	77.0	0.0	13.02	-116.6	0	-997.0	-997.0	47.1	1873564	2566	0	0	0	61.9	52.5	0.0
2024 05/13 22:45	42.7	85.9	264.1	13.9	30.36	77.0	0.0	13.03	-117.4	0	50.5	41.6	47.1	1873564	2566	0	0	0	61.7	52.4	0.0
2024 05/13 23:00	42.2	90.0	280.3	7.2	30.37	76.8	0.0	13.03	-118.1	0	-997.0	-997.0	46.3	1873564	2566	0	0	0	61.0	52.1	0.0
2024 05/13 23:15	42.9	88.6	308.5	13.7	30.36	76.6	0.0	13.01	-119.0	0	50.6	41.6	46.1	1873564	2566	0	0	0	60.1	51.7	0.0
2024 05/13 23:30	43.3	85.3	286.6	11.9	30.35	76.4	0.0	13.01	-119.7	0	-997.0	-997.0	46.1	1873564	2566	0	0	0	60.0	51.6	0.0
2024 05/13 23:45	42.5	86.9	273.9	8.9	30.35	76.1	0.0	13.01	-120.6	0	50.5	41.6	44.8	1873564	2566	0	0	0	59.0	51.3	0.0
2024 05/14 00:00	42.9	86.3	300.8	9.8	30.35	75.9	0.0	13.01	-121.3	0	50.5	41.6	44.7	1873564	2566	0	0	0	59.0	51.3	0.0
2024 05/14 00:15	42.9	86.7	293.7	12.5	30.35	75.7	0.0	12.99	-122.0	0	50.7	41.6	44.7	1873564	2566	0	0	0	59.0	51.3	0.0
2024 05/14 00:30	42.9	86.1	267.9	10.9	30.34	75.5	0.0	13.02	-122.7	0	-997.0	-997.0	43.9	1873564	2566	0	0	0	57.4	50.6	0.0
2024 05/14 00:45	42.7	88.0	280.0	11.9	30.34	75.3	0.0	13.00	-123.4	0	50.8	41.6	43.2	1873564	2566	0	0	0	56.7	50.4	0.0
2024 05/14 01:00	42.5	89.9	284.1	12.4	30.33	75.1	0.0	12.99	-124.1	0	50.6	41.6	42.2	1873564	2566	0	0	0	56.5	50.3	0.0
2024 05/14 01:15	42.2	91.2	285.7	12.0	30.33	74.9	0.0	13.01	-124.7	0	50.7	40.7	43.0	1873564	2566	0	0	0	56.2	50.2	0.0
2024 05/14 01:30	41.6	94.7	302.0	11.4	30.33	74.6	0.0	13.01	-125.3	0	-997.0	-997.0	44.1	1873564	2566	0	0	0	55.7	49.8	0.0
2024 05/14 01:45	43.8	86.8	288.9	11.4	30.32	74.2	0.0	13.01	-125.8	0	49.9	41.6	44.4	1873564	2566	0	0	0	55.6	49.8	0.0
2024 05/14 02:00	42.5	88.0	312.7	14.9	30.32	74.0	0.0	12.99	-126.2	0	50.2	41.6	45.0	1873564	2566	0	0	0	55.6	49.8	0.0
2024 05/14 02:15	42.2	88.5	309.4	12.9	30.32	73.8	0.0	13.02	-126.6	0	50.6	41.6	44.4	1873564	2566	0	0	0	54.9	49.5	0.0
2024 05/14 02:30	42.3	89.1	312.5	14.0	30.31	73.6	0.0	13.02	-127.1	0	-997.0	-997.0	43.8	1873564	2566	0	0	0	54.7	49.3	0.0
2024 05/14 02:45	43.1	91.4	313.4	14.7	30.31	73.4	0.0	13.02	-127.4	0	50.5	41.6	44.2	1873564	2566	0	0	0	54.6	49.2	0.0
2024 05/14 03:00	42.3	88.5	312.8	12.6	30.30	73.1	0.0	12.99	-127.8	0	50.1	41.6	43.9	1873564	2566	0	0	0	54.2	49.0	0.0
2024 05/14 03:15	42.0	88.2	308.5	12.4	30.31	72.9	0.0	12.99	-128.2	0	50.2	40.7	43.2	1873564	2566	0	0	0	54.2	48.8	0.0
2024 05/14 03:30	41.8	90.0	303.6	10.9	30.31	72.7	0.0	13.03	-128.5	0	-997.0	-997.0	43.4	1873564	2566	0	0	0	53.9	48.7	0.0
2024 05/14 03:45	41.7	91.4	306.4	9.9	30.31	72.5	0.0	13.00	-128.8	0	50.1	41.6	42.7	1873564	2566	0	0	0	53.5	48.6	0.0
2024 05/14 04:00	41.8	90.4	295.8	9.7	30.31	72.3	0.0	13.01	-129.1	0	50.2	40.7	42.7	1873564	2566	0	0	0	53.4	48.4	0.0
2024 05/14 04:15	41.9	87.2	288.5	10.2	30.30	72.1	0.0	13.01	-129.5	0	50.2	40.7	42.6	1873564	2566	0	0	0	53.0	48.2	0.0
2024 05/14 04:30	41.6	93.1	307.9	10.9	30.30	71.9	0.0	12.99	-129.9	0	-997.0	-997.0	44.0	1873564	2566	0	0	0	52.4	48.0	0.0
2024 05/14 04:45	41.8	87.4	325.7	12.4	30.29	71.4	0.0	13.01	-130.2	0	50.0	40.7	43.3	1873564	2566	0	0	0	52.2	47.8	0.0
2024 05/14 05:00	42.7	74.5	335.8	14.4	30.29	71.3	0.0	13.00	-130.6	0	50.3	40.7	42.6	1873564	2566	0	0	0	52.0	47.8	0.0
2024 05/14 05:15	42.9	55.8	330.1	11.5	30.29	71.0	2.7	13.02	-130.8	0	50.4	40.7	43.5	1873564	2566	0	0	0	51.5	47.5	0.0
2024 05/14 05:30	44.7	34.8	339.7	15.8	30.28	70.8	30.5	13.03	-131.1	0	-997.0	-997.0	43.3	1873564	2566	0	0	0	51.0	47.4	0.0
2024 05/14 05:45	45.5	32.8	343.5	17.8	30.28	70.6	127.5	13.01	-131.3	0	49.5	40.7	40.3	1873564	2566	0	0	0	50.9	47.4	0.0
2024 05/14 06:00	45.6	36.8	352.4	16.2	30.28	70.3	384.9	12.99	-131.6	0	50.5	41.6	39.1	1873564	2566	0	0	0	50.4	47.1	0.0
2024 05/14 06:15	46.6	35.2	12.7	8.8	30.28	70.0	433.1	13.01	-131.9	0	50.2	44.3	38.5	1873564	2566	0	0	0	50.2	46.9	0.0
2024 05/14 06:30	47.3	31.7	46.3	4.9	30.29	69.7	446.3	13.02	-132.2	0	-997.0	-997.0	38.8	1873564	2566	0	0	0	50.0	46.7	0.0
2024 05/14 06:45	48.3	30.0	74.0	4.1	30.28	69.5	492.1	13.03	-132.4	0	50.3	47.0	38.5	1873564	2566	0	0	0	49.8	46.7	0.0
2024 05/14 07:00	48.6	29.6	70.5	3.3	30.29	69.3	528.1	13.00	-132.7	0	50.3	47.0	39.4	1873564	2566	0	0	0	49.4	46.5	0.0
2024 05/14 07:15	48.3	32.3	88.7	3.5	30.28	69.1	587.1	13.01	-132.9	0	50.3	47.9	40.3	1873564	2566	0	0	0	49.4	46.4	0.0
2024 05/14 07:30	49.1	33.4	49.1	2.6	30.29	68.9	610.5	13.02	-133.0	0	-997.0	-997.0	42.0	1873564	2566	0	0	0	49.4	46.4	0.0
2024 05/14 07:45	46.8	44.1	32.4	1.3	30.29	68.7	626.5	12.99	-133.3	0	49.7	51.5	43.4	1873564	2566	0	0	0	49.3	46.2	0.0
2024 05/14 08:00	47.2	42.9	80.9	1.4	30.29	68.5	638.3	13.02	-133.4	0	49.4	52.4	45.1	1873564	2566	0	0	0	49.7	46.2	0.0
2024 05/14 08:15	46.0	56.0	79.2	7.3	30.29	68.3	646.5	13.02	-133.5	0	49.7	52.4	48.3	1873564	2566	0	0	0	50.5	46.4	0.0
2024 05/14 08:30	45.2	55.6	86.2	6.7	30.29	68.3	654.6	13.00	-133.5	0	-997.0	-997.0	49.6	1873564	2566	0	0	0	51.1	46.5	0.0
2024 05/14 08:45	44.5	63.2	78.6	8.8	30.30	68.1	667.9	13.00	-133.7	0	49.5	52.4	50.5	1873564	2566	0	0	0	51.3	46.6	0.0
2024 05/14 09:00	44.1	68.6	82.6	9.7	30.30	68.1	682.8	12.99	-133.7	0	49.5	50.6	51.2	1873564	2566	0	0	0	52.3	46.9	0.0
2024 05/14 09:15	45.9	74.1	80.5	11.9	30.30	68.0	694.7	13.00	-133.7	0	50.1	50.6	51.7	1873564	2566	0	0	0	53.5	47.8	0.0
2024 05/14 09:30	45.4	73.4	96.0	14.8	30.29	67.9	705.0	12.99	-133.5	0	-997.0	-997.0	52.1	1873564	2566	0	0	0	53.5	47.8	0.0
2024 05/14 09:45	45.2	73.0	91.2	13.5	30.30	67.9	718.0	12.99	-133.5	0	49.7	50.6	52.9	1873564	2566	0	0	0	54.9	49.3	0.0
2024 05/14 10:00	45.5	70.3	84.2	14.5	30.30	67.9	729.0	13.02	-133.4	0	49.7	51.5	53.8	1873564	2566	0	0	0	56.6	50.7	0.0
2024 05/14 10:15	45.4	68.8	102.4	16.6	30.31	67.9	741.0	13.00	-133.3	0	-997.0	-997.0	54.7	1873564	2566	0	0	0	57.8	51.7	0.0
2024 05/14 10:30	47.1	64.0	104.5	18.0	30.31	68.0	753.0	13.00	-133.3	0	-997.0	-997.0	55.7	1873564	2566	0	0	0	58.2	52.1	0.0
2024 05/14 10:45	47.2	65.1	87.7	13.4	30.31	68.0	761.0	13.01	-133.2	0	50.1	52.4	56.4	1873564	2566	0	0	0	60.1	53.7	0.0
2024 05/14 11:00	47.7	70.1	93.8	12.5	30.31	68.1	765.0	12.99	-133.0	0	50.4	53.3	57.1	1873564	2566	0	0	0	61.4	54.6	0.0
2024 05/14 11:15	48.3	65.3	98.7	15.1	30.32	68.2	769.0	13.01	-132.9	0	50.2	54.2	58.5	1873564	2566	0	0	0	62.8	55.5	0.0
2024 05/14 11:30	49.3	62.7	74.4	12.0	30.32	68.3	772.0	13.01	-132.8	0	-997.0	-997.0	59.8	1873564	2566	0	0	0	63.8	56.1	0.0
2024 05/14 11:45	50.7	56.7	117.9	8.8	30.32	68.4	775.0	13.00	-132.5	0	49.8	56.9	60.5	1873564	2566	0	0	0	64.8	56.8	0.0
2024 05/14 12:00	51.0	53.1	79.8	9.3	30.33	68.5	777.0	13.00	-132.5	0	49.5	57.8	61.6	1873564	2566	0	0	0	66.4	57.6	0.0
2024 05/14 12:15	53.0	51.1	84.0	7.8	30.33	68.7	777.0	13.01	-132.4	0	49.7	57.8	63.0	1873564	2566	0	0	0	67.7	58.4	0.0
2024 05/14 12:30	53.3	49.2	118.5	6.5	30.33	68.9	779.0	13.02	-132.3	0	-997.0	-997.0	63.2	1873564	2566	0	0	0	68.6	58.7	0.0
2024 05/14 12:45	54.6	46.9	104.2	4.4	30.33	68.9	779.0	13.00	-132.2	0	49.5	60.5	64.3	1873564	2566	0	0	0	69.9	59.3	0.0
2024 05/14 13:00	53.8	44.2	41.4	3.2	30.34	69.1	774.0	13.00	-132.1	0	49.3	62.3	65.6	1873564	2566	0	0	0	71.0	59.7	0.0
2024 05/14 13:15	54.4	43.6	63.9	5.8	30.34	69.1	771.0	13.00	-131.9	0	49.3	63.2	66.4	1873564	2566	0	0	0	72.2	60.0	0.0
2024 05/14 13:30	56.6	42.3	8.5	0.1	30.33	69.3	774.0	13.00	-131.8	0	-997.0	-997.0	66.8	1873564	2566	0	0	0	73.0	60.3	0.0
2024 05/14 13:45	56.7	41.0	115.9	6.7	30.33	69.3	778.0	13.01	-131.7	0	48.6	64.1	67.5	1873564	2566	0	0	0	73.7	60.5	0.0
2024 05/14 14:00	57.4	39.0	93.5	2.9	30.34	69.5	783.0	13.02	-131.6	0	47.7	65.0	67.0	1873564	2566	0	0	0	74.4	60.6	0.0
2024 05/14 14:15	58.5	38.0	130.2	5.4	30.34	69.6	788.0	13.03	-131.4	0	47.5	65.9	70.3	1873564	2566	0	0	0	75.0	60.7	0.0
2024 05/14 14:30	57.3	37.1	77.6	2.8	30.34	69.7	783.0	13.00	-131.3	0	-997.0	-997.0	70.4	1873564	2566	0	0	0	75.4	60.7	0.0
2024 05/14 14:45	57.7	35.1	70.5	6.2	30.35	69.8	788.0	13.01	-131.1	0	47.3	64.1	70.4	1873564	2566	0	0	0	75.8	60.5	0.0
2024 05/14 15:00	57.5	36.2	97.2	6.8	30.34	69.9	786.0	13.01	-130.6	0	47.4	65.0	69.9	1873564	2566	0	0	0	76.2	60.3	0.0
2024 05/14 15:15	57.4	37.4	69.4	9.5	30.34	70.1	783.0	12.99	-130.1	0	47.5	65.0	68.8	1873564	2566	0	0	0	76.3	60.1	0.0
2024 05/14 15:30	58.8	36.6	77.3	5.1	30.34	70.4	782.0	13.01	-129.7	0	-997.0	-997.0	71.8	1873564	2566	0	0	0	76.4	59.9	0.0
2024 05/14 15:45	58.2	36.4	81.7	6.4	30.35	70.5	779.0	13.01	-129.5	0	47.2	65.0	72.2	1873564	2566	0	0	0	76.5	59.7	0.0
2024 05/14 16:00	59.1	36.7	60.1	4.8	30.35	70.7	776.0	13.00	-129.5	0	47.8	64.1	72.4	1873564	2566	0	0	0	76.7	59.4	0.0
2024 05/14 16:15	59.3	44.2	69.0	13.4	30.35	71.0	775.0	12.99	-129.3	0	46.2	65.0	74.5	1873564	2566	0	0	0	77.2	59.3	0.0
2024 05/14 16:30	57.9	46.2	69.0	9.7	30.36	71.2	760.0	13.02	-129.0	0	-997.0	-997.0	74.8	1873564	2566	0	0	0	77.4	59.2	0.0
2024 05/14 16:45	57.9	46.9	89.7	7.3	30.36	71.4	762.0	13.00	-128.6	0	47.3	64.1	75.4	1873564	2566	0	0	0	77.9	59.1	0.0
2024 05/14 17:00	58.0	48.0	31.5	9.4	30.36	71.6	635.6	13.02	-128.2	0	47.6	62.3	74.4	1873564	2566	0	0	0	78.2	59.0	0.0
2024 05/14 17:15	58.0	47.0	78.0	7.9	30.37	72.1	748.0	13.01	-127.5	0	47.5	63.2	76.4	1873564	2566	0	0	0	78.4	58.8	0.0
2024 05/14 17:30	57.8	48.1	68.5	9.9	30.37	72.3	658.0	13.02	-126.9	0	-997.0	-997.0	76.5	1873564	2566	0	0	0	78.8	58.7	0.0
2024 05/14 17:45	57.9	48.4	63.8	6.8	30.38	72.7	715.0	13.01	-126.2	0	47.6	63.2	80.7	1873564	2566	0	0	0	79.0	58.6	0.0
2024 05/14 18:00	57.9	49.6	12.3	6.2	30.38	72.9	703.0	12.99	-125.5	0	47.2	64.1	80.4	1873564	2566	0	0	0	79.1	58.5	0.0
2024 05/14 18:15	57.1	58.6	358.7	10.0	30.38	73.4	671.9	13.02	-124.7	0	46.7	63.2	81.9	1873564	2566	0	0	0	78.8	58.4	0.0
2024 05/14 18:30	56.9	60.6	353.1	13.5	30.39	73.6	635.6	13.01	-124.1	0	-997.0	-997.0	81.8	1873564	2566	0	0	0	78.5	58.3	0.0
2024 05/14 18:45	56.2	63.9	346.1	16.1	30.39	74.0	624.0	13.00	-123.5	0	46.3	60.5	77.1	1873564	2566	0	0	0	78.3	58.0	0.0
2024 05/14 19:00	55.7	68.9	337.0	18.1	30.40	74.2	624.7	13.00	-122.9	0	47.2	58.7	67.7	1873564	2566	0	0	0	77.7	57.9	0.0
2024 05/14 19:15	54.9	71.6	346.8	17.2	30.40	74.4	643.0	13.00	-122.2	0	47.7	57.8	61.2	1873564	2566	0	0	0	77.0	57.8	0.0
2024 05/14 19:30	54.3	73.2	353.7	16.0	30.41	74.9	584.7	13.01	-121.3	0	-997.0	-997.0	59.6	1873564	2566	0	0	0	76.2	57.7	0.0
2024 05/14 19:45	53.9	74.6	355.7	12.8	30.42	75.1	600.3	12.99	-120.6	0	47.2	56.0	56.6	1873564	2566	0	0	0	75.3	57.4	0.0
2024 05/14 20:00	53.2	76.6	355.6	12.0	30.42	75.3	551.5	13.03	-119.9	0	47.0	54.2	53.7	1873564	2566	0	0	0	74.4	57.2	0.0
2024 05/14 20:15	53.0	76.2	358.2	12.5	30.42	75.5	419.9	13.02	-119.2	0	46.8	53.3	52.2	1873564	2566	0	0	0	73.5	56.8	0.0
2024 05/14 20:30	52.3	76.4	0.3	12.0	30.42	75.8	115.3	13.01	-118.9	0	-997.0	-997.0	51.0	1873564	2566	0	0	0	72.7	56.5	0.0
2024 05/14 20:45	52.1	76.2	20.7	7.9	30.43	75.9	18.3	13.01	-118.6	0	47.6	50.6	49.4	1873564	2566	0	0	0	71.7	56.1	0.0
2024 05/14 21:00	51.7	75.4	9.5	9.9	30.43	76.1	2.0	13.01	-118.5	0	47.7	50.6	47.6	1873564	2566	0	0	0	70.8	55.8	0.0
2024 05/14 21:15	51.6	75.0	14.9	9.7	30.44	76.1	0.0	13.00	-118.4	0	47.7	49.7	46.7	1873564	2566	0	0	0	69.8	55.5	0.0
2024 05/14 21:30	51.7	74.0	32.2	8.7	30.44	76.4	0.0	12.99	-118.4	0	-997.0	-997.0	46.0	1873564	2566	0	0	0	69.1	55.1	0.0
2024 05/14 21:45	51.9	71.5	76.1	9.5	30.45	76.4	0.0	12.99	-118.4	0	47.7	47.9	46.0	1873564	2566	0	0	0	68.4	54.9	0.0
2024 05/14 22:00	52.3	64.1	104.7	7.7	30.45	76.4	0.0	13.01	-118.4	0	47.7	47.9	45.0	1873564	2566	0	0	0	66.6	54.3	0.0
2024 05/14 22:15	52.3	57.5	112.2	8.1	30.44	76.4	0.0	13.03	-118.5	0	47.3	48.8	44.1	1873564	2566	0	0	0	65.5	54.0	0.0
2024 05/14 22:30	51.8	53.9	137.0	8.9	30.45	76.4	0.0	12.99	-118.8	0	-997.0	-997.0	43.5	1873564	2566	0	0	0	64.9	53.8	0.0
2024 05/14 22:45	51.9	60.8	97.4	7.1	30.45	76.4	0.0	13.03	-119.0	0	47.0	48.8	42.5	1873564	2566	0	0	0	63.9	53.4	0.0
2024 05/14 23:00	51.8	57.4	140.3	5.8	30.45	76.2	0.0	12.99	-119.2	0	48.1	46.1	42.1	1873564	2566	0	0	0	63.6	53.2	0.0
2024 05/14 23:15	51.9	54.9	120.7	4.0	30.45	76.1	0.0	13.03	-119.6	0	47.8	47.0	41.5	1873564	2566	0	0	0	62.3	52.8	0.0
2024 05/14 23:30	51.6	54.3	136.7	6.5	30.44	76.1	0.0	12.99	-120.1	0	-997.0	-997.0	41.6	1873564	2566	0	0	0	62.2	52.7	0.0
2024 05/14 23:45	51.7	54.7	130.2	2.4	30.44	75.9	0.0	13.02	-120.6	0	47.9	47.0	41.1	1873564	2566	0	0	0	61.7	52.4	0.0
2024 05/15 00:00	51.5	54.7	121.0	0.2	30.44	75.7	0.0	13.00	-121.1	0	47.8	47.0	40.6	1873564	2566	0	0	0	60.5	52.0	0.0
2024 05/15 00:15	51.6	52.5	155.7	1.3	30.44	75.7	0.0	12.99	-121.7	0	47.5	47.9	40.0	1873564	2566	0	0	0	59.7	51.6	0.0
2024 05/15 00:30	51.2	59.0	206.2	0.0	30.43	75.5	0.0	12.99	-122.4	0	-997.0	-997.0	39.6	1873564	2566	0	0	0	59.5	51.5	0.0
2024 05/15 00:45	51.3	58.1	316.9	5.9	30.43	75.3	0.0	13.01	-123.0	0	47.6	48.8	38.9	1873564	2566	0	0	0	58.7	51.2	0.0
2024 05/15 01:00	51.7	46.3	344.5	10.8	30.42	75.1	0.0	13.02	-123.6	0	47.6	48.8	39.0	1873564	2566	0	0	0	57.7	50.9	0.0
2024 05/15 01:15	50.8	52.3	340.8	7.4	30.42	74.9	0.0	13.01	-124.1	0	47.7	47.9	38.6	1873564	2566	0	0	0	57.2	50.6	0.0
2024 05/15 01:30	51.0	54.3	125.5	7.4	30.41	74.6	0.0	13.01	-124.6	0	-997.0	-997.0	38.5	1873564	2566	0	0	0	57.0	50.5	0.0
2024 05/15 01:45	51.2	54.8	144.6	8.3	30.40	74.4	0.0	13.01	-125.1	0	47.6	47.0	38.8	1873564	2566	0	0	0	56.2	50.2	0.0
2024 05/15 02:00	52.4	52.6	130.3	8.2	30.40	74.2	0.0	13.00	-125.5	0	47.5	47.0	38.5	1873564	2566	0	0	0	55.7	49.8	0.0
2024 05/15 02:15	50.8	51.4	104.7	4.8	30.40	74.0	0.0	13.02	-126.0	0	47.8	46.1	38.2	1873564	2566	0	0	0	55.4	49.6	0.0
2024 05/15 02:30	51.0	50.3	113.8	4.7	30.40	73.8	0.0	13.02	-126.3	0	-997.0	-997.0	38.0	1873564	2566	0	0	0	55.2	49.6	0.0
2024 05/15 02:45	50.6	51.0	140.7	5.9	30.40	73.6	0.0	13.00	-126.7	0	47.8	46.1	37.3	1873564	2566	0	0	0	54.6	49.3	0.0
2024 05/15 03:00	50.8	50.5	148.4	6.6	30.39	73.4	0.0	13.01	-126.9	0	47.6	47.0	36.8	1873564	2566	0	0	0	54.1	48.9	0.0
2024 05/15 03:15	50.8	49.4	157.6	7.2	30.39	73.1	0.0	13.03	-127.3	0	47.7	47.9	36.8	1873564	2566	0	0	0	53.8	48.7	0.0
2024 05/15 03:30	51.8	49.1	165.3	2.4	30.39	73.0	0.0	13.00	-127.7	0	-997.0	-997.0	36.4	1873564	2566	0	0	0	53.8	48.7	0.0
2024 05/15 03:45	51.0	49.6	33.5	0.7	30.39	72.7	0.0	13.00	-128.0	0	47.9	46.1	36.4	1873564	2566	0	0	0	53.4	48.5	0.0
2024 05/15 04:00	51.5	46.7	27.4	3.9	30.39	72.5	0.0	13.03	-128.4	0	47.6	47.0	35.9	1873564	2566	0	0	0	52.5	48.2	0.0
2024 05/15 04:15	51.8	45.9	20.7	4.4	30.38	72.3	0.0	13.02	-128.8	0	47.8	47.0	35.8	1873564	2566	0	0	0	53.0	48.0	0.0
2024 05/15 04:30	52.5	40.2	22.2	3.5	30.38	72.1	0.0	13.02	-129.1	0	-997.0	-997.0	35.7	1873564	2566	0	0	0	52.3	47.8	0.0
2024 05/15 04:45	52.5	41.1	329.2	6.0	30.37	71.9	0.0	13.00	-129.5	0	47.8	47.9	35.1	1873564	2566	0	0	0	51.6	47.6	0.0
2024 05/15 05:00	52.2	42.7	297.0	4.7	30.37	71.6	0.0	13.01	-129.9	0	47.7	47.9	35.3	1873564	2566	0	0	0	51.3	47.4	0.0
2024 05/15 05:15	51.2	51.2	285.2	5.2	30.37	71.4	2.0	13.01	-130.1	0	47.8	47.0	34.9	1873564	2566	0	0	0	51.3	47.1	0.0
2024 05/15 05:30	51.6	52.0	249.8	3.5	30.36	71.2	19.0	13.00	-130.4	0	-997.0	-997.0	35.1	1873564	2566	0	0	0	50.9	47.0	0.0
2024 05/15 05:45	51.7	52.9	249.1	4.2	30.36	71.0	81.4	13.01	-130.6	0	47.6	47.0	34.9	1873564	2566	0	0	0	50.5	46.8	0.0
2024 05/15 06:00	50.8	52.1	277.1	7.7	30.36	70.8	296.4	13.02	-130.8	0	48.1	47.9	35.1	1873564	2566	0	0	0	50.0	46.6	0.0
2024 05/15 06:15	51.6	43.5	309.0	6.7	30.36	70.6	479.6	13.03	-131.1	0	47.5	49.7	35.5	1873564	2566	0	0	0	49.6	46.5	0.0
2024 05/15 06:30	51.6	45.7	346.8	10.8	30.35	70.5	492.1	13.00	-131.3	0	-997.0	-997.0	35.9	1873564	2566	0	0	0	49.4	46.4	0.0
2024 05/15 06:45	52.1	44.8	344.6	10.4	30.35	70.4	508.4	13.00	-131.4	0	47.2	53.3	36.7	1873564	2566	0	0	0	49.4	46.1	0.0
2024 05/15 07:00	51.9	44.2	344.2	11.9	30.35	70.1	522.6	13.00	-131.6	0	47.5	52.4	38.5	1873564	2566	0	0	0	49.0	46.1	0.0
2024 05/15 07:15	52.2	42.9	331.5	8.1	30.35	70.0	537.9	13.01	-131.7	0	47.3	54.2	40.6	1873564	2566	0	0	0	49.4	46.0	0.0
2024 05/15 07:30	50.7	47.4	315.7	7.7	30.35	69.9	529.1	13.01	-131.7	0	-997.0	-997.0	40.9	1873564	2566	0	0	0	49.2	46.0	0.0
2024 05/15 07:45	49.7	49.7	313.4	8.7	30.35	69.9	566.4	12.99	-131.7	0	46.9	53.3	43.3	1873564	2566	0	0	0	49.5	46.0	0.0
2024 05/15 08:00	49.0	51.4	308.7	6.1	30.36	69.9	596.6	13.01	-131.7	0	47.0	54.2	47.9	1873564	2566	0	0	0	49.7	46.1	0.0
2024 05/15 08:15	51.7	45.3	41.6	1.3	30.36	69.8	609.1	13.01	-131.7	0	46.8	55.1	49.5	1873564	2566	0	0	0	50.9	46.2	0.0
2024 05/15 08:30	52.4	51.4	162.6	2.1	30.36	69.8	621.7	13.01	-131.6	0	-997.0	-997.0	50.8	1873564	2566	0	0	0	51.4	46.4	0.0
2024 05/15 08:45	52.2	51.5	174.8	3.9	30.36	69.9	624.4	13.02	-131.4	0	46.8	56.9	52.0	1873564	2566	0	0	0	52.4	46.6	0.0
2024 05/15 09:00	53.3	53.3	140.8	6.2	30.36	69.9	651.9	13.01	-131.4	0	47.1	56.9	53.5	1873564	2566	0	0	0	53.8	47.1	0.0
2024 05/15 09:15	53.3	46.1	158.4	6.9	30.36	69.9	683.7	13.00	-131.4	0	47.0	57.8	55.5	1873564	2566	0	0	0	55.4	47.9	0.0
2024 05/15 09:30	55.4	46.0	168.6	3.4	30.37	69.9	696.3	13.00	-131.3	0	-997.0	-997.0	56.1	1873564	2566	0	0	0	56.6	48.8	0.0
2024 05/15 09:45	57.5	47.9	182.4	2.7	30.37	69.9	708.0	13.02	-131.3	0	46.8	58.7	56.2	1873564	2566	0	0	0	58.7	50.0	0.0
2024 05/15 10:00	55.9	50.5	304.1	1.5	30.37	70.0	722.0	13.01	-131.2	0	-997.0	-997.0	58.4	1873564	2566	0	0	0	60.5	51.0	0.0
2024 05/15 10:15	54.0	53.8	312.3	5.3	30.37	70.1	728.0	13.01	-131.1	0	46.8	58.7	59.4	1873564	2566	0	0	0	62.2	52.1	0.0
2024 05/15 10:30	54.1	53.0	327.0	3.1	30.37	70.1	731.0	13.00	-131.0	0	-997.0	-997.0	60.2	1873564	2566	0	0	0	63.3	52.9	0.0
2024 05/15 10:45	54.3	50.7	333.3	5.3	30.37	70.3	735.0	13.00	-130.8	0	47.0	59.6	61.1	1873564	2566	0	0	0	65.0	54.0	0.0
2024 05/15 11:00	54.1	52.1	321.4	7.2	30.38	70.4	743.0	13.00	-130.7	0	47.2	59.6	62.3	1873564	2566	0	0	0	66.7	54.9	0.0
2024 05/15 11:15	55.2	49.5	306.1	7.3	30.38	70.5	746.0	13.01	-130.5	0	47.0	60.5	63.3	1873564	2566	0	0	0	68.1	55.9	0.0
2024 05/15 11:30	56.8	47.4	331.0	5.1	30.39	70.6	754.0	13.00	-130.2	0	-997.0	-997.0	63.3	1873564	2566	0	0	0	69.1	56.6	0.0
2024 05/15 11:45	57.1	45.9	316.9	4.6	30.38	70.8	757.0	13.00	-130.0	0	46.2	64.1	64.7	1873564	2566	0	0	0	70.4	57.4	0.0
2024 05/15 12:00	58.5	46.1	304.4	6.1	30.39	71.0	757.0	13.03	-129.7	0	46.5	64.1	65.9	1873564	2566	0	0	0	71.7	58.0	0.0
2024 05/15 12:15	57.8	45.1	255.2	8.0	30.39	71.2	762.0	13.00	-129.4	0	46.5	63.2	67.3	1873564	2566	0	0	0	72.9	58.6	0.0
2024 05/15 12:30	58.6	42.7	314.2	4.4	30.39	71.3	763.0	13.03	-129.0	0	-997.0	-997.0	66.7	1873564	2566	0	0	0	73.6	59.2	0.0
2024 05/15 12:45	59.9	39.7	284.8	5.9	30.39	71.5	762.0	13.02	-128.6	0	46.4	65.0	68.2	1873564	2566	0	0	0	74.6	59.6	0.0
2024 05/15 13:00	60.4	39.1	302.5	7.9	30.39	71.6	771.0	13.01	-128.3	0	46.0	65.9	68.8	1873564	2566	0	0	0	75.5	60.2	0.0
2024 05/15 13:15	61.3	40.3	321.8	5.4	30.39	71.9	762.0	13.02	-127.9	0	46.3	65.9	69.6	1873564	2566	0	0	0	76.6	60.6	0.0
2024 05/15 13:30	61.5	41.8	321.6	14.2	30.39	72.1	764.0	12.99	-127.5	0	-997.0	-997.0	68.4	1873564	2566	0	0	0	77.4	60.7	0.0
2024 05/15 13:45	60.5	41.8	295.2	8.2	30.39	72.3	766.0	13.02	-127.2	0	45.9	65.9	70.1	1873564	2566	0	0	0	78.3	61.0	0.0
2024 05/15 14:00	59.5	42.7	337.4	13.8	30.39	72.5	759.0	13.01	-126.7	0	46.0	65.9	69.9	1873564	2566	0	0	0	79.1	61.1	0.0
2024 05/15 14:15	60.6	43.3	313.1	15.2	30.39	72.8	776.0	13.03	-126.2	0	45.1	65.9	69.6	1873564	2566	0	0	0	79.4	61.1	0.0
2024 05/15 14:30	60.4	43.8	351.1	11.2	30.39	73.0	779.0	13.00	-125.7	0	-997.0	-997.0	70.9	1873564	2566	0	0	0	79.6	61.2	0.0
2024 05/15 14:45	61.1	45.4	262.9	5.6	30.40	73.4	774.0	12.99	-125.2	0	45.5	65.9	71.7	1873564	2566	0	0	0	79.6	61.2	0.0
2024 05/15 15:00	60.1	44.0	13.4	15.8	30.40	73.6	781.0	13.01	-124.6	0	44.8	65.9	72.8	1873564	2566	0	0	0	79.9	61.1	0.0
2024 05/15 15:15	60.4	45.2	322.3	13.3	30.40	73.8	768.0	13.00	-124.1	0	45.2	65.9	72.2	1873564	2566	0	0	0	79.9	60.9	0.0
2024 05/15 15:30	61.1	47.0	349.7	9.8	30.40	74.0	777.0	13.02	-123.5	0	-997.0	-997.0	72.4	1873564	2566	0	0	0	80.1	60.9	0.0
2024 05/15 15:45	60.4	46.0	322.1	15.2	30.40	74.2	771.0	13.00	-122.8	0	45.2	65.0	71.5	1873564	2566	0	0	0	80.3	60.7	0.0
2024 05/15 16:00	60.0	45.0	325.1	13.5	30.40	74.6	773.0	13.01	-122.0	0	44.5	65.9	74.0	1873564	2566	0	0	0	79.8	60.7	0.0
2024 05/15 16:15	60.9	44.2	307.3	12.1	30.40	74.9	767.0	13.03	-121.2	0	44.6	65.9	73.5	1873564	2566	0	0	0	80.2	60.6	0.0
2024 05/15 16:30	61.6	44.9	305.6	11.3	30.40	75.1	763.0	13.01	-120.3	0	-997.0	-997.0	75.1	1873564	2566	0	0	0	80.4	60.6	0.0
2024 05/15 16:45	61.2	44.8	316.8	12.0	30.40	75.5	756.0	13.01	-119.4	0	44.7	65.0	77.6	1873564	2566	0	0	0	80.5	60.6	0.0
2024 05/15 17:00	60.6	46.9	316.7	14.5	30.40	75.7	752.0	13.01	-118.3	0	44.4	65.9	78.2	1873564	2566	0	0	0	81.1	60.6	0.0
2024 05/15 17:15	61.3	45.2	303.2	12.9	30.40	76.1	724.0	13.03	-117.2	0	44.0	65.0	75.3	1873564	2566	0	0	0	81.6	60.6	0.0
2024 05/15 17:30	60.5	45.0	313.8	17.1	30.40	76.4	724.0	12.99	-115.9	0	-997.0	-997.0	75.0	1873564	2566	0	0	0	81.8	60.5	0.0
2024 05/15 17:45	61.5	44.2	300.6	8.9	30.40	76.8	709.0	13.01	-114.6	0	-997.0	-997.0	83.5	1873564	2566	0	0	0	81.5	60.5	0.0
2024 05/15 18:00	60.7	43.9	308.8	12.9	30.40	77.0	698.0	13.00	-113.1	0	-997.0	-997.0	83.5	1873564	2566	0	0	0	81.5	60.5	0.0
2024 05/15 18:15	60.7	42.7	306.4	14.5	30.40	77.4	661.0	12.99	-111.8	0	44.1	64.1	82.6	1873564	2566	0	0	0	81.3	60.5	0.0
2024 05/15 18:30	59.9	47.7	307.7	15.7	30.41	77.6	624.4	12.99	-110.2	0	-997.0	-997.0	80.7	1873564	2566	0	0	0	81.5	60.4	0.0
2024 05/15 18:45	59.5	53.7	304.6	14.2	30.41	78.1	623.7	13.00	-108.6	0	44.3	62.3	80.7	1873564	2566	0	0	0	81.1	60.3	0.0
2024 05/15 19:00	59.3	54.8	291.0	12.8	30.41	78.3	624.0	13.01	-107.3	0	44.2	61.4	70.5	1873564	2566	0	0	0	80.0	60.3	0.0
2024 05/15 19:15	58.6	57.1	284.2	11.3	30.41	78.7	646.4	12.99	-105.9	0	43.8	60.5	65.0	1873564	2566	0	0	0	79.0	60.1	0.0
2024 05/15 19:30	58.0	57.6	276.8	9.4	30.42	78.9	601.7	13.01	-104.7	0	-997.0	-997.0	62.7	1873564	2566	0	0	0	78.4	60.0	0.0
2024 05/15 19:45	57.2	59.3	285.5	9.7	30.42	79.1	603.7	13.02	-103.5	0	44.3	58.7	60.9	1873564	2566	0	0	0	77.5	59.7	0.0
2024 05/15 20:00	56.2	56.9	306.0	15.5	30.42	79.3	560.6	13.02	-102.4	0	44.0	57.8	59.3	1873564	2566	0	0	0	76.4	59.4	0.0
2024 05/15 20:15	55.5	56.2	323.7	21.2	30.42	79.6	429.0	13.01	-101.2	0	43.9	56.0	58.2	1873564	2566	0	0	0	75.5	59.1	0.0
2024 05/15 20:30	54.7	57.5	320.6	20.9	30.42	79.8	113.3	13.03	-99.8	0	-997.0	-997.0	57.5	1873564	2566	0	0	0	74.7	58.8	0.0
2024 05/15 20:45	54.1	57.5	325.5	21.8	30.42	80.0	22.4	13.02	-98.7	0	43.6	54.2	56.1	1873564	2566	0	0	0	73.8	58.6	0.0
2024 05/15 21:00	53.6	57.5	321.6	20.7	30.42	80.2	3.4	13.01	-98.0	0	44.4	53.3	54.6	1873564	2566	0	0	0	72.9	58.3	0.0
2024 05/15 21:15	53.0	58.5	320.9	20.6	30.43	80.3	0.0	13.03	-97.6	0	44.2	52.4	54.7	1873564	2566	0	0	0	72.0	57.9	0.0
2024 05/15 21:30	53.0	60.2	310.0	20.6	30.43	80.4	0.0	13.01	-97.5	0	-997.0	-997.0	54.6	1873564	2566	0	0	0	71.4	57.7	0.0
2024 05/15 21:45	52.7	60.4	312.8	19.4	30.43	80.4	0.0	13.01	-97.7	0	44.2	50.6	53.8	1873564	2566	0	0	0	70.4	57.4	0.0
2024 05/15 22:00	52.2	61.3	320.5	20.2	30.42	80.4	0.0	12.99	-98.2	0	44.7	50.6	53.4	1873564	2566	0	0	0	69.4	57.0	0.0
2024 05/15 22:15	51.6	63.0	308.5	17.8	30.42	80.4	0.0	13.01	-99.0	0	-997.0	-997.0	54.0	1873564	2566	0	0	0	68.6	56.8	0.0
2024 05/15 22:30	52.3	66.6	307.5	16.6	30.42	80.4	0.0	13.03	-99.8	0	-997.0	-997.0	54.0	1873564	2566	0	0	0	68.1	56.6	0.0
2024 05/15 22:45	50.7	67.8	296.6	12.2	30.42	80.2	0.0	13.00	-100.9	0	44.3	48.8	53.9	1873564	2566	0	0	0	67.2	56.2	0.0
2024 05/15 23:00	51.0	66.4	313.3	15.3	30.42	80.2	0.0	13.02	-101.9	0	44.1	49.7	53.5	1873564	2566	0	0	0	66.5	55.9	0.0
2024 05/15 23:15	50.8	65.4	293.5	9.9	30.42	80.0	0.0	13.03	-102.9	0	44.4	48.8	53.3	1873564	2566	0	0	0	65.8	55.7	0.0
2024 05/15 23:30	51.0	65.0	279.5	12.1	30.41	79.9	0.0	13.00	-104.0	0	-997.0	-997.0	53.1	1873564	2566	0	0	0	65.4	55.5	0.0
2024 05/15 23:45	50.6	66.8	281.9	12.5	30.40	79.8	0.0	13.00	-105.3	0	44.3	48.8	52.6	1873564	2566	0	0	0	64.7	55.2	0.0
2024 05/16 00:00	51.5	69.5	236.8	12.5	30.40	79.6	0.0	13.03	-106.7	0	44.3	48.8	52.3	1873564	2566	0	0	0	64.0	54.9	0.0
2024 05/16 00:15	51.3	74.0	257.7	14.0	30.39	79.4	0.0	13.01	-108.0	0	44.3	48.8	49.6	1873564	2566	0	0	0	63.5	54.7	0.0
2024 05/16 00:30	51.2	75.2	237.3	13.8	30.39	79.1	0.0	12.99	-109.1	0	-997.0	-997.0	48.8	1873564	2566	0	0	0	62.9	54.5	0.0
2024 05/16 00:45	51.2	74.8	247.5	12.7	30.38	79.0	0.0	13.01	-110.2	0	44.3	47.9	49.2	1873564	2566	0	0	0	62.7	54.3	0.0
2024 05/16 01:00	50.6	76.9	250.6	14.2	30.38	78.8	0.0	13.03	-111.3	0	44.5	47.9	50.5	1873564	2566	0	0	0	61.7	54.0	0.0
2024 05/16 01:15	50.5	72.2	249.1	15.7	30.37	78.6	0.0	13.01	-112.3	0	44.2	47.9	48.4	1873564	2566	0	0	0	61.4	53.9	0.0
2024 05/16 01:30	50.0	75.0	258.5	15.3	30.36	78.4	0.0	13.00	-113.1	0	-997.0	-997.0	47.2	1873564	2566	0	0	0	60.7	53.7	0.0
2024 05/16 01:45	49.4	81.8	243.9	15.7	30.35	78.2	0.0	12.99	-114.0	0	44.0	47.9	48.1	1873564	2566	0	0	0	60.3	53.4	0.0
2024 05/16 02:00	48.8	83.2	246.3	16.0	30.34	78.1	0.0	13.02	-114.7	0	44.3	47.9	48.6	1873564	2566	0	0	0	60.0	53.3	0.0
2024 05/16 02:15	48.5	85.3	256.3	15.4	30.34	77.9	0.0	13.01	-115.5	0	44.1	47.9	48.3	1873564	2566	0	0	0	59.3	53.0	0.0
2024 05/16 02:30	48.8	88.2	223.0	17.3	30.33	77.6	0.0	13.01	-116.3	0	-997.0	-997.0	48.1	1873564	2566	0	0	0	59.0	53.0	0.0
2024 05/16 02:45	47.5	85.6	274.8	15.5	30.33	77.4	0.0	12.99	-117.0	0	43.9	47.0	48.9	1873564	2566	0	0	0	58.8	52.8	0.0
2024 05/16 03:00	47.2	88.0	248.4	15.7	30.33	77.2	0.0	13.00	-117.7	0	44.3	46.1	48.7	1873564	2566	0	0	0	58.4	52.5	0.0
2024 05/16 03:15	47.3	83.6	267.0	13.5	30.32	77.0	0.0	13.03	-118.4	0	44.0	46.1	49.6	1873564	2566	0	0	0	57.9	52.4	0.0
2024 05/16 03:30	47.8	78.5	239.3	16.4	30.32	76.8	0.0	13.00	-119.0	0	-997.0	-997.0	48.7	1873564	2566	0	0	0	57.9	52.4	0.0
2024 05/16 03:45	48.0	84.9	227.9	14.4	30.32	76.6	0.0	13.00	-119.7	0	43.8	46.1	49.7	1873564	2566	0	0	0	57.7	52.3	0.0
2024 05/16 04:00	46.9	83.6	272.9	17.3	30.31	76.4	0.0	13.02	-120.5	0	44.3	45.2	49.2	1873564	2566	0	0	0	57.2	52.1	0.0
2024 05/16 04:15	46.3	84.6	278.8	16.0	30.31	76.1	0.0	13.01	-121.2	0	43.7	45.2	48.1	1873564	2566	0	0	0	57.3	52.0	0.0
2024 05/16 04:30	45.8	87.8	282.4	15.8	30.30	75.9	0.0	12.99	-121.9	0	-997.0	-997.0	48.0	1873564	2566	0	0	0	56.8	51.7	0.0
2024 05/16 04:45	45.8	87.6	270.8	17.4	30.30	75.5	0.0	13.02	-122.7	0	43.9	45.2	47.7	1873564	2566	0	0	0	56.7	51.6	0.0
2024 05/16 05:00	46.6	90.5	280.4	17.1	30.29	75.3	0.0	13.01	-123.3	0	44.4	44.3	46.5	1873564	2566	0	0	0	56.5	51.5	0.0
2024 05/16 05:15	45.0	95.4	272.7	14.9	30.29	75.1	2.7	13.01	-123.9	0	43.8	44.3	45.8	1873564	2566	0	0	0	56.4	51.4	0.0
2024 05/16 05:30	44.6	98.4	264.4	14.9	30.28	74.9	20.7	13.03	-124.5	0	-997.0	-997.0	46.1	1873564	2566	0	0	0	56.1	51.3	0.0
2024 05/16 05:45	44.9	100.1	282.5	16.7	30.28	74.6	114.6	12.99	-125.1	0	43.9	44.3	46.3	1873564	2566	0	0	0	56.0	51.2	0.0
2024 05/16 06:00	44.6	100.2	243.4	13.3	30.28	74.4	300.5	13.03	-125.6	0	44.3	45.2	47.8	1873564	2566	0	0	0	55.7	51.1	0.0
2024 05/16 06:15	45.1	100.2	247.0	15.5	30.28	74.2	335.1	13.01	-126.1	0	44.1	46.1	48.4	1873564	2566	0	0	0	55.5	51.0	0.0
2024 05/16 06:30	45.5	100.2	249.4	14.2	30.28	73.8	503.0	12.99	-126.4	0	-997.0	-997.0	48.4	1873564	2566	0	0	0	55.1	50.9	0.0
2024 05/16 06:45	46.7	99.7	246.8	13.7	30.28	73.7	447.3	13.01	-126.8	0	43.8	46.1	48.3	1873564	2566	0	0	0	54.9	50.7	0.0
2024 05/16 07:00	45.7	100.2	259.5	13.5	30.27	73.6	489.1	13.00	-127.1	0	43.8	47.0	49.3	1873564	2566	0	0	0	54.8	50.7	0.0
2024 05/16 07:15	45.4	100.2	238.4	12.5	30.27	73.4	532.8	13.01	-127.3	0	43.5	47.9	51.1	1873564	2566	0	0	0	54.5	50.7	0.0
2024 05/16 07:30	45.6	100.1	247.2	13.8	30.27	73.1	547.4	13.01	-127.4	0	-997.0	-997.0	51.7	1873564	2566	0	0	0	54.5	50.7	0.0
2024 05/16 07:45	45.8	100.1	255.7	14.1	30.27	73.1	561.0	13.02	-127.7	0	43.6	49.7	52.2	1873564	2566	0	0	0	54.3	50.7	0.0
2024 05/16 08:00	45.4	100.1	280.8	13.1	30.27	72.9	581.0	13.01	-127.8	0	43.4	49.7	53.2	1873564	2566	0	0	0	55.0	50.9	0.0
2024 05/16 08:15	46.1	100.2	264.6	15.7	30.26	72.9	611.5	12.99	-127.9	0	43.5	50.6	53.4	1873564	2566	0	0	0	55.8	51.1	0.0
2024 05/16 08:30	46.3	99.1	255.5	15.5	30.26	72.7	627.1	13.00	-128.0	0	-997.0	-997.0	53.8	1873564	2566	0	0	0	56.0	51.2	0.0
2024 05/16 08:45	46.4	97.3	286.2	14.9	30.26	72.7	643.0	13.02	-128.0	0	43.0	52.4	55.1	1873564	2566	0	0	0	56.2	51.3	0.0
2024 05/16 09:00	47.0	92.9	246.2	14.2	30.26	72.7	657.3	12.99	-128.2	0	43.5	51.5	55.0	1873564	2566	0	0	0	56.7	51.5	0.0
2024 05/16 09:15	47.3	91.5	291.8	15.9	30.27	72.5	673.6	13.02	-128.2	0	-997.0	-997.0	56.1	1873564	2566	0	0	0	57.8	52.2	0.0
2024 05/16 09:30	48.4	86.3	280.3	6.9	30.26	72.5	688.5	13.00	-128.3	0	-997.0	-997.0	56.1	1873564	2566	0	0	0	57.8	52.2	0.0
2024 05/16 09:45	48.5	83.2	275.6	12.5	30.26	72.5	612.5	13.01	-128.4	0	43.4	52.4	56.9	1873564	2566	0	0	0	59.3	53.3	0.0
2024 05/16 10:00	49.1	79.4	251.6	14.8	30.26	72.5	720.0	13.03	-128.3	0	-997.0	-997.0	57.0	1873564	2566	0	0	0	60.4	54.1	0.0
2024 05/16 10:15	48.9	77.1	286.5	16.7	30.26	72.3	725.0	12.99	-128.3	0	42.9	53.3	57.8	1873564	2566	0	0	0	61.9	55.0	0.0
2024 05/16 10:30	50.7	71.7	273.6	12.0	30.25	72.3	731.0	12.99	-128.3	0	-997.0	-997.0	58.7	1873564	2566	0	0	0	62.8	55.7	0.0
2024 05/16 10:45	52.2	68.6	289.0	9.1	30.26	72.3	737.0	12.99	-128.2	0	43.2	55.1	59.7	1873564	2566	0	0	0	63.3	56.1	0.0
2024 05/16 11:00	53.6	61.4	275.1	5.9	30.26	72.3	742.0	13.02	-128.2	0	43.2	56.0	60.6	1873564	2566	0	0	0	65.4	56.9	0.0
2024 05/16 11:15	53.4	64.5	269.5	7.9	30.26	72.3	747.0	13.01	-128.2	0	43.1	56.9	61.1	1873564	2566	0	0	0	66.8	57.8	0.0
2024 05/16 11:30	54.8	57.0	283.9	6.5	30.26	72.3	753.0	13.01	-127.9	0	-997.0	-997.0	61.9	1873564	2566	0	0	0	67.8	58.3	0.0
2024 05/16 11:45	53.6	57.0	270.9	10.9	30.26	72.5	756.0	13.01	-127.8	0	43.0	58.7	62.0	1873564	2566	0	0	0	69.0	59.1	0.0
2024 05/16 12:00	53.5	53.8	215.9	16.9	30.27	72.5	759.0	13.01	-127.8	0	42.8	58.7	62.5	1873564	2566	0	0	0	70.4	59.4	0.0
2024 05/16 12:15	54.1	50.0	281.0	13.1	30.27	72.5	761.0	12.99	-127.5	0	42.7	57.8	63.8	1873564	2566	0	0	0	71.0	60.0	0.0
2024 05/16 12:30	54.8	50.5	285.7	12.2	30.27	72.5	765.0	13.02	-127.4	0	-997.0	-997.0	63.7	1873564	2566	0	0	0	71.3	60.2	0.0
2024 05/16 12:45	54.3	48.8	309.1	11.9	30.26	72.6	767.0	13.01	-127.3	0	42.8	57.8	63.9	1873564	2566	0	0	0	72.2	60.6	0.0
2024 05/16 13:00	55.6	49.5	287.9	8.9	30.26	72.7	765.0	13.02	-127.2	0	42.6	59.6	64.6	1873564	2566	0	0	0	72.9	60.7	0.0
2024 05/16 13:15	53.8	55.6	6.9	13.8	30.26	72.7	761.0	13.00	-127.1	0	42.3	59.6	64.9	1873564	2566	0	0	0	73.5	61.0	0.0
2024 05/16 13:30	54.9	55.5	63.4	13.5	30.26	72.7	760.0	12.99	-126.9	0	-997.0	-997.0	64.5	1873564	2566	0	0	0	73.9	61.1	0.0
2024 05/16 13:45	56.2	54.7	297.8	8.8	30.25	72.9	764.0	13.01	-126.8	0	41.7	59.6	65.4	1873564	2566	0	0	0	74.3	61.2	0.0
2024 05/16 14:00	56.0	53.4	239.0	16.4	30.25	72.9	771.0	13.01	-126.7	0	42.1	59.6	65.7	1873564	2566	0	0	0	74.5	61.3	0.0
2024 05/16 14:15	55.6	54.9	248.4	13.5	30.25	72.9	776.0	12.99	-126.6	0	-997.0	-997.0	66.0	1873564	2566	0	0	0	74.7	61.3	0.0
2024 05/16 14:30	57.8	55.7	265.6	10.2	30.26	73.1	779.0	13.01	-126.3	0	-997.0	-997.0	67.3	1873564	2566	0	0	0	74.9	61.2	0.0
2024 05/16 14:45	55.2	61.2	311.4	13.7	30.26	73.1	779.0	13.01	-126.1	0	41.6	58.7	66.8	1873564	2566	0	0	0	75.1	61.2	0.0
2024 05/16 15:00	55.7	57.9	29.2	13.2	30.26	73.4	776.0	12.99	-125.8	0	41.4	58.7	68.1	1873564	2566	0	0	0	75.1	61.1	0.0
2024 05/16 15:15	56.7	56.3	274.6	7.3	30.26	73.4	775.0	13.02	-125.6	0	40.0	58.7	67.0	1873564	2566	0	0	0	75.4	60.7	0.0
2024 05/16 15:30	55.5	57.7	171.3	15.2	30.25	73.6	775.0	13.02	-125.2	0	-997.0	-997.0	66.9	1873564	2566	0	0	0	75.0	60.7	0.0
2024 05/16 15:45	55.9	55.8	273.7	9.2	30.25	73.7	773.0	13.02	-125.0	0	38.9	58.7	66.7	1873564	2566	0	0	0	74.8	60.4	0.0
2024 05/16 16:00	55.5	55.4	220.5	10.7	30.25	73.8	771.0	12.99	-124.5	0	40.6	57.8	68.5	1873564	2566	0	0	0	74.9	60.2	0.0
2024 05/16 16:15	54.1	53.7	271.4	14.7	30.25	74.0	766.0	12.99	-124.1	0	40.3	57.8	67.7	1873564	2566	0	0	0	75.1	60.0	0.0
2024 05/16 16:30	54.9	52.3	253.9	11.3	30.25	74.2	761.0	13.01	-123.6	0	-997.0	-997.0	69.5	1873564	2566	0	0	0	75.3	59.9	0.0
2024 05/16 16:45	54.1	50.5	231.2	16.1	30.25	74.4	755.0	13.03	-123.1	0	40.5	57.8	72.7	1873564	2566	0	0	0	75.6	59.6	0.0
2024 05/16 17:00	54.3	51.4	200.1	10.5	30.26	74.4	747.0	13.01	-122.8	0	40.3	56.9	73.7	1873564	2566	0	0	0	75.4	59.5	0.0
2024 05/16 17:15	53.6	51.7	203.8	15.4	30.25	74.6	737.0	12.99	-122.3	0	39.7	56.0	74.0	1873564	2566	0	0	0	75.5	59.3	0.0
2024 05/16 17:30	53.6	53.9	167.4	10.0	30.25	74.9	720.0	13.03	-121.7	0	-997.0	-997.0	75.6	1873564	2566	0	0	0	75.5	59.2	0.0
2024 05/16 17:45	52.7	48.5	304.9	14.9	30.25	75.1	707.0	12.99	-121.2	0	39.5	56.0	75.3	1873564	2566	0	0	0	75.5	59.0	0.0
2024 05/16 18:00	52.4	46.1	276.7	10.6	30.24	75.3	695.6	13.01	-120.6	0	39.5	56.0	77.7	1873564	2566	0	0	0	75.3	58.8	0.0
2024 05/16 18:15	52.8	46.5	197.6	14.4	30.24	75.5	658.0	13.00	-120.0	0	39.8	54.2	78.2	1873564	2566	0	0	0	74.9	58.6	0.0
2024 05/16 18:30	50.7	49.6	322.5	13.7	30.24	75.7	618.3	12.99	-119.4	0	-997.0	-997.0	79.8	1873564	2566	0	0	0	74.7	58.4	0.0
2024 05/16 18:45	50.2	51.6	263.8	13.8	30.24	75.9	622.0	13.01	-118.8	0	39.9	52.4	79.5	1873564	2566	0	0	0	74.1	58.0	0.0
2024 05/16 19:00	49.3	51.5	292.0	10.5	30.24	76.1	626.1	12.99	-118.3	0	40.0	51.5	67.9	1873564	2566	0	0	0	73.5	57.8	0.0
2024 05/16 19:15	48.4	57.6	329.5	21.2	30.23	76.4	645.8	13.01	-117.8	0	40.1	50.6	60.9	1873564	2566	0	0	0	72.7	57.6	0.0
2024 05/16 19:30	48.1	65.5	205.9	10.9	30.24	76.6	615.6	13.02	-117.4	0	-997.0	-997.0	59.6	1873564	2566	0	0	0	72.0	57.4	0.0
2024 05/16 19:45	46.2	76.9	266.4	19.4	30.23	76.6	307.3	13.03	-117.0	0	38.7	48.8	56.8	1873564	2566	0	0	0	71.3	57.0	0.0
2024 05/16 20:00	44.9	83.4	211.0	12.6	30.23	76.8	228.3	13.03	-116.8	0	39.5	47.0	54.8	1873564	2566	0	0	0	70.5	56.7	0.0
2024 05/16 20:15	44.6	88.3	188.8	17.4	30.23	76.8	108.2	13.02	-116.6	0	39.7	46.1	53.7	1873564	2566	0	0	0	69.6	56.5	0.0
2024 05/16 20:30	44.1	93.9	180.9	20.0	30.22	77.0	39.3	13.01	-116.4	0	-997.0	-997.0	53.1	1873564	2566	0	0	0	69.0	56.2	0.0
2024 05/16 20:45	43.6	96.8	203.9	15.8	30.22	77.0	12.9	13.03	-116.7	0	40.0	45.2	52.5	1873564	2566	0	0	0	68.3	55.9	0.0
2024 05/16 21:00	43.0	96.2	240.8	17.6	30.22	77.0	0.7	13.01	-116.9	0	39.9	44.3	51.6	1873564	2566	0	0	0	67.3	55.8	0.0
2024 05/16 21:15	42.7	99.7	194.8	19.2	30.22	77.0	0.0	13.02	-117.3	0	39.9	44.3	51.1	1873564	2566	0	0	0	66.4	55.5	0.0
2024 05/16 21:30	42.8	100.1	289.1	22.6	30.23	77.0	0.0	13.02	-117.7	0	-997.0	-997.0	51.1	1873564	2566	0	0	0	65.9	55.5	0.0
2024 05/16 21:45	42.7	99.6	292.6	15.5	30.22	76.8	0.0	13.00	-118.1	0	39.4	44.3	50.7	1873564	2566	0	0	0	65.1	55.1	0.0
2024 05/16 22:00	42.5	100.2	285.1	17.2	30.22	76.8	0.0	12.99	-118.8	0	39.5	44.3	50.7	1873564	2566	0	0	0	64.5	55.0	0.0
2024 05/16 22:15	42.3	100.7	324.8	14.4	30.23	76.6	0.0	13.01	-119.4	0	39.4	43.4	51.1	1873564	2566	0	0	0	63.9	54.8	0.0
2024 05/16 22:30	41.3	100.2	233.4	20.7	30.22	76.6	0.0	13.00	-119.9	0	-997.0	-997.0	51.0	1873564	2566	0	0	0	63.3	54.7	0.0
2024 05/16 22:45	41.0	100.2	328.9	16.0	30.22	76.4	0.0	13.03	-120.5	0	39.2	42.5	49.4	1873564	2566	0	0	0	63.1	54.5	0.0
2024 05/16 23:00	40.6	100.1	268.2	17.5	30.21	76.1	0.0	13.01	-121.1	0	39.4	42.5	49.8	1873564	2566	0	0	0	62.3	54.2	0.0
2024 05/16 23:15	40.6	100.2	261.3	16.1	30.22	75.9	0.0	12.99	-121.6	0	39.2	41.6	48.8	1873564	2566	0	0	0	61.9	54.0	0.0
2024 05/16 23:30	40.3	100.1	272.5	18.1	30.21	75.8	0.0	13.01	-122.2	0	-997.0	-997.0	49.3	1873564	2566	0	0	0	61.7	53.9	0.0
2024 05/16 23:45	40.1	100.1	230.6	24.6	30.20	75.7	0.0	12.99	-122.8	0	38.2	41.6	47.5	1873564	2566	0	0	0	61.0	53.7	0.0
2024 05/17 00:00	40.2	100.2	226.0	23.1	30.19	75.5	0.0	12.99	-123.4	0	38.6	40.7	47.2	1873564	2566	0	0	0	61.0	53.7	0.0
2024 05/17 00:15	40.3	100.1	259.9	23.9	30.19	75.3	0.0	13.01	-124.0	0	39.0	40.7	46.6	1873564	2566	0	0	0	60.3	53.3	0.0
2024 05/17 00:30	40.0	100.2	243.6	20.8	30.20	75.0	0.0	12.99	-124.5	0	-997.0	-997.0	46.7	1873564	2566	0	0	0	59.9	53.2	0.0
2024 05/17 00:45	39.6	100.2	300.1	22.1	30.19	74.8	0.0	12.99	-125.1	0	38.9	40.7	47.1	1873564	2566	0	0	0	59.6	53.1	0.0
2024 05/17 01:00	39.0	100.2	279.4	20.7	30.19	74.5	0.0	13.01	-125.5	0	38.2	39.8	46.2	1873564	2566	0	0	0	59.2	52.9	0.0
2024 05/17 01:15	38.4	100.1	275.6	19.4	30.19	74.2	0.0	12.99	-126.1	0	39.0	38.9	45.8	1873564	2566	0	0	0	58.8	52.8	0.0
2024 05/17 01:30	38.1	100.1	249.2	14.9	30.18	74.0	0.0	12.99	-126.6	0	-997.0	-997.0	45.7	1873564	2566	0	0	0	58.4	52.5	0.0
2024 05/17 01:45	37.9	100.2	273.8	24.8	30.19	73.8	0.0	12.99	-127.2	0	38.7	38.9	44.9	1873564	2567	0	0	0	57.8	52.4	0.0
2024 05/17 02:00	37.8	100.1	14.9	14.2	30.19	73.6	0.0	13.00	-127.7	0	38.2	38.9	44.7	1873564	2567	0	0	0	57.4	52.2	0.0
2024 05/17 02:15	37.6	100.2	262.0	16.2	30.18	73.2	0.0	13.02	-128.2	0	39.2	38.9	44.7	1873564	2568	0	0	0	57.4	52.2	0.0
2024 05/17 02:30	37.4	100.1	252.9	8.8	30.18	72.9	0.0	13.01	-128.5	0	-997.0	-997.0	44.9	1873564	2568	0	0	0	56.9	52.0	0.0
2024 05/17 02:45	36.8	100.1	292.4	16.9	30.17	72.7	0.0	13.00	-129.0	0	39.2	38.0	44.4	1873564	2569	0	0	0	56.4	51.7	0.0
2024 05/17 03:00	36.8	100.1	286.9	17.6	30.17	72.5	0.0	13.01	-129.4	0	-997.0	-997.0	45.0	1873564	2569	0	0	0	56.1	51.6	0.0
2024 05/17 03:15	35.8	100.1	253.2	17.3	30.17	72.3	0.0	13.00	-129.7	0	38.7	37.1	45.0	1873564	2571	0	0	0	55.8	51.4	0.0
2024 05/17 03:30	35.1	100.1	309.7	16.9	30.17	72.0	0.0	13.02	-130.1	0	-997.0	-997.0	44.1	1873564	2572	0	0	0	55.6	51.2	0.0
2024 05/17 03:45	34.1	100.1	275.3	21.1	30.17	71.6	0.0	12.99	-130.4	0	38.5	35.3	44.3	1873564	2572	0	0	0	55.2	51.0	0.0
2024 05/17 04:00	34.2	100.1	290.5	22.6	30.17	71.4	0.0	13.00	-130.7	0	38.2	35.3	43.2	1873564	2572	0	0	0	54.9	50.7	0.0
2024 05/17 04:15	34.4	100.1	283.3	24.7	30.16	71.2	0.0	12.99	-131.1	0	38.2	35.3	42.7	1873564	2572	0	0	0	54.5	50.5	0.0
2024 05/17 04:30	33.8	100.1	271.6	25.3	30.16	70.9	0.0	13.00	-131.3	0	-997.0	-997.0	42.3	1873564	2572	0	0	0	54.2	50.3	0.0
2024 05/17 04:45	33.5	100.2	295.7	20.8	30.16	70.6	0.0	13.03	-131.7	0	38.2	34.4	42.3	1873564	2572	0	0	0	54.0	50.1	0.0
2024 05/17 05:00	34.0	100.7	273.0	21.1	30.16	70.4	0.0	13.00	-132.1	0	38.3	34.4	42.6	1873564	2572	0	0	0	53.5	50.0	0.0
2024 05/17 05:15	32.4	100.1	295.2	22.1	30.15	70.0	2.7	13.01	-132.3	0	38.2	34.4	42.1	1873564	2572	0	0	0	53.2	49.7	0.0
2024 05/17 05:30	31.8	100.1	227.0	14.8	30.15	69.7	18.3	13.00	-132.5	0	-997.0	-997.0	42.0	1873564	2572	0	0	0	53.1	49.6	0.0
2024 05/17 05:45	31.7	100.1	238.4	16.5	30.15	69.5	52.2	12.99	-132.8	0	38.4	33.5	41.3	1873564	2572	0	0	0	52.3	49.0	0.0
2024 05/17 06:00	31.4	100.1	235.3	12.6	30.16	69.2	126.5	12.99	-133.0	0	38.1	33.5	40.3	1873564	2572	0	0	0	52.1	48.7	0.0
2024 05/17 06:15	31.3	100.1	305.3	14.5	30.15	68.9	230.3	13.00	-133.3	0	38.7	32.6	41.3	1873564	2572	0	0	0	52.2	48.7	0.0
2024 05/17 06:30	31.1	100.1	267.9	14.7	30.15	68.7	290.0	12.99	-133.5	0	-997.0	-997.0	40.4	1873564	2572	0	0	0	51.9	48.4	0.0
2024 05/17 06:45	31.2	100.1	270.3	8.8	30.17	68.4	354.1	13.01	-133.7	0	38.6	32.6	39.0	1873564	2572	0	0	0	51.4	48.0	0.0
2024 05/17 07:00	30.9	100.1	265.1	14.5	30.17	68.1	444.7	13.00	-133.9	0	38.7	32.6	38.9	1873564	2572	0	0	0	51.2	47.8	0.0
2024 05/17 07:15	30.6	100.1	243.0	13.3	30.17	67.9	423.7	13.03	-134.1	0	38.3	31.7	40.9	1873564	2572	0	0	0	51.2	47.8	0.0
2024 05/17 07:30	30.3	100.1	286.3	10.0	30.17	67.5	465.7	13.00	-134.3	0	-997.0	-997.0	41.6	1873564	2572	0	0	0	50.7	47.4	0.0
2024 05/17 07:45	30.2	100.1	264.9	10.6	30.18	67.2	509.5	13.01	-134.4	0	38.8	32.6	40.7	1873564	2572	0	0	0	51.0	47.0	0.0
2024 05/17 08:00	30.1	100.1	141.7	10.4	30.19	67.0	547.8	13.01	-134.5	0	38.9	33.5	40.7	1873564	2572	0	0	0	50.9	46.8	0.0
2024 05/17 08:15	30.2	100.1	305.3	10.7	30.20	66.8	594.3	13.02	-134.6	0	38.3	34.4	41.4	1873564	2572	0	0	0	50.7	46.8	0.0
2024 05/17 08:30	30.9	100.1	261.0	5.5	30.21	66.5	560.4	13.01	-134.9	0	-997.0	-997.0	41.7	1873564	2572	0	0	0	51.0	46.7	0.0
2024 05/17 08:45	30.8	100.1	163.8	5.2	30.21	66.3	546.5	12.99	-135.0	0	38.2	36.2	43.2	1873564	2572	0	0	0	51.1	46.6	0.0
2024 05/17 09:00	31.6	100.7	269.3	7.5	30.21	66.0	594.3	13.00	-135.0	0	38.3	35.3	44.3	1873564	2572	0	0	0	51.1	46.5	0.0
2024 05/17 09:15	30.2	100.1	286.9	8.0	30.21	65.7	603.5	13.01	-135.1	0	38.4	36.2	45.0	1873564	2572	0	0	0	51.2	46.5	0.0
2024 05/17 09:30	30.8	100.1	302.7	9.2	30.21	65.5	658.1	12.99	-135.3	0	-997.0	-997.0	42.4	1873564	2572	0	0	0	52.0	46.6	0.0
2024 05/17 09:45	31.3	100.1	321.9	8.8	30.21	65.3	639.8	13.03	-135.4	0	38.5	36.2	43.8	1873564	2572	0	0	0	52.9	47.0	0.0
2024 05/17 10:00	31.1	100.1	308.6	7.1	30.22	65.2	691.3	13.01	-135.5	0	38.4	36.2	44.3	1873564	2572	0	0	0	53.2	47.2	0.0
2024 05/17 10:15	32.0	100.1	302.0	8.3	30.22	65.0	704.0	13.01	-135.5	0	38.4	38.0	45.9	1873564	2572	0	0	0	54.3	47.9	0.0
2024 05/17 10:30	33.6	93.7	307.8	7.7	30.22	64.9	714.0	13.00	-135.5	0	-997.0	-997.0	46.1	1873564	2572	0	0	0	55.5	48.5	0.0
2024 05/17 10:45	34.3	79.4	297.9	8.3	30.23	64.8	720.0	12.99	-135.5	0	38.4	40.7	48.4	1873564	2572	0	0	0	56.5	49.0	0.0
2024 05/17 11:00	35.1	75.0	345.9	8.9	30.23	64.7	727.0	13.01	-135.5	0	38.6	40.7	48.6	1873564	2572	0	0	0	57.6	49.6	0.0
2024 05/17 11:15	35.5	77.9	292.7	9.8	30.23	64.7	732.0	13.03	-135.5	0	38.8	40.7	48.6	1873564	2572	0	0	0	58.0	49.8	0.0
2024 05/17 11:30	37.9	77.0	168.2	3.6	30.23	64.6	737.0	13.00	-135.5	0	-997.0	-997.0	50.6	1873564	2572	0	0	0	59.3	50.5	0.0
2024 05/17 11:45	41.1	62.0	202.4	5.6	30.23	64.6	742.0	12.99	-135.5	0	38.1	45.2	51.4	1873564	2572	0	0	0	60.6	51.1	0.0
2024 05/17 12:00	39.1	69.5	279.5	4.9	30.24	64.6	746.0	13.01	-135.5	0	38.0	45.2	51.7	1873564	2572	0	0	0	61.5	51.5	0.0
2024 05/17 12:15	40.1	63.4	258.5	11.1	30.23	64.6	750.0	13.03	-135.5	0	36.9	45.2	51.7	1873564	2572	0	0	0	62.7	51.9	0.0
2024 05/17 12:30	39.7	59.0	314.9	9.3	30.23	64.6	756.0	13.02	-135.5	0	-997.0	-997.0	53.7	1873564	2572	0	0	0	63.2	52.1	0.0
2024 05/17 12:45	40.7	54.7	311.0	8.5	30.24	64.6	759.0	13.00	-135.5	0	36.8	46.1	53.5	1873564	2572	0	0	0	64.4	52.4	0.0
2024 05/17 13:00	41.2	53.3	310.0	9.8	30.24	64.6	757.0	12.99	-135.5	0	37.2	47.9	53.3	1873564	2572	0	0	0	65.1	52.7	0.0
2024 05/17 13:15	42.3	46.2	209.0	12.7	30.24	64.6	754.0	13.00	-135.5	0	37.3	48.8	55.3	1873564	2572	0	0	0	65.5	52.9	0.0
2024 05/17 13:30	42.1	50.7	206.3	10.2	30.24	64.6	752.0	12.99	-135.4	0	-997.0	-997.0	54.4	1873564	2572	0	0	0	66.1	53.1	0.0
2024 05/17 13:45	44.9	43.8	293.6	5.4	30.24	64.7	757.0	13.01	-135.4	0	37.3	48.8	57.8	1873564	2572	0	0	0	66.5	53.2	0.0
2024 05/17 14:00	42.4	45.5	314.9	8.3	30.24	64.8	763.0	13.00	-135.4	0	37.1	48.8	58.6	1873564	2572	0	0	0	66.7	53.3	0.0
2024 05/17 14:15	47.1	40.3	301.1	5.5	30.24	64.8	769.0	13.00	-135.4	0	37.5	49.7	59.4	1873564	2572	0	0	0	66.9	53.3	0.0
2024 05/17 14:30	45.4	44.3	229.8	7.2	30.25	64.9	771.0	13.03	-135.4	0	-997.0	-997.0	56.9	1873564	2572	0	0	0	67.3	53.3	0.0
2024 05/17 14:45	44.9	33.2	302.7	9.7	30.24	64.9	772.0	13.03	-135.4	0	37.6	50.6	60.4	1873564	2572	0	0	0	67.6	53.1	0.0
2024 05/17 15:00	45.2	37.6	289.8	10.4	30.24	65.0	770.0	13.02	-135.3	0	37.5	49.7	60.2	1873564	2572	0	0	0	67.4	53.1	0.0
2024 05/17 15:15	45.1	35.5	273.3	7.8	30.24	65.1	769.0	13.03	-135.3	0	36.5	49.7	61.6	1873564	2572	0	0	0	67.3	52.8	0.0
2024 05/17 15:30	45.0	36.0	277.0	12.7	30.24	65.2	768.0	12.99	-135.1	0	-997.0	-997.0	61.1	1873564	2572	0	0	0	67.2	52.5	0.0
2024 05/17 15:45	45.7	34.5	166.3	11.9	30.24	65.3	766.0	13.02	-135.0	0	37.3	50.6	62.8	1873564	2572	0	0	0	67.2	52.3	0.0
2024 05/17 16:00	47.8	36.5	210.6	6.7	30.24	65.5	764.0	12.99	-135.0	0	36.7	49.7	61.6	1873564	2572	0	0	0	67.7	52.0	0.0
2024 05/17 16:15	44.3	34.6	347.1	10.6	30.24	65.6	759.0	13.02	-134.9	0	37.0	49.7	61.0	1873564	2572	0	0	0	67.4	52.0	0.0
2024 05/17 16:30	45.4	33.0	342.4	10.7	30.24	65.8	754.0	13.01	-134.8	0	-997.0	-997.0	63.8	1873564	2572	0	0	0	68.1	51.7	0.0
2024 05/17 16:45	44.6	40.2	325.2	14.7	30.23	66.1	748.0	13.03	-134.6	0	36.3	49.7	63.1	1873564	2572	0	0	0	68.4	51.6	0.0
2024 05/17 17:00	45.4	38.3	312.1	12.1	30.24	66.3	739.0	13.01	-134.5	0	36.0	49.7	63.1	1873564	2572	0	0	0	69.0	51.5	0.0
2024 05/17 17:15	46.0	39.9	299.7	9.2	30.24	66.6	729.0	13.02	-134.3	0	36.3	50.6	65.6	1873564	2572	0	0	0	68.7	51.4	0.0
2024 05/17 17:30	46.8	40.6	246.4	10.8	30.24	66.8	713.0	13.02	-134.2	0	-997.0	-997.0	62.7	1873564	2572	0	0	0	69.5	51.4	0.0
2024 05/17 17:45	46.8	43.1	77.3	4.8	30.25	67.1	698.4	13.00	-133.9	0	36.1	50.6	70.2	1873564	2572	0	0	0	69.3	51.5	0.0
2024 05/17 18:00	44.7	43.1	307.8	14.1	30.25	67.3	685.8	13.02	-133.7	0	36.0	50.6	69.7	1873564	2572	0	0	0	69.4	51.3	0.0
2024 05/17 18:15	44.6	48.4	272.6	11.9	30.25	67.7	650.3	13.00	-133.5	0	36.1	49.7	70.9	1873564	2572	0	0	0	69.2	51.3	0.0
2024 05/17 18:30	44.1	50.7	244.6	11.4	30.25	67.8	613.9	13.01	-133.3	0	-997.0	-997.0	69.4	1873564	2572	0	0	0	69.0	51.2	0.0
2024 05/17 18:45	45.1	53.6	131.9	6.5	30.25	68.0	617.6	13.01	-133.0	0	36.0	47.0	69.4	1873564	2572	0	0	0	68.7	51.1	0.0
2024 05/17 19:00	43.9	61.3	262.4	11.8	30.25	68.3	618.3	13.00	-132.8	0	36.5	46.1	65.4	1873564	2572	0	0	0	68.2	51.0	0.0
2024 05/17 19:15	42.9	61.6	240.1	14.1	30.25	68.5	631.8	13.01	-132.5	0	36.4	45.2	57.5	1873564	2572	0	0	0	67.4	50.9	0.0
2024 05/17 19:30	42.4	64.5	293.7	10.0	30.25	68.8	606.7	13.03	-132.4	0	-997.0	-997.0	53.0	1873564	2572	0	0	0	66.7	50.6	0.0
2024 05/17 19:45	41.6	62.7	308.8	10.5	30.25	69.0	561.0	13.00	-132.3	0	36.6	44.3	51.3	1873564	2572	0	0	0	65.7	50.5	0.0
2024 05/17 20:00	40.7	64.4	274.3	9.7	30.26	69.1	484.0	13.00	-132.1	0	36.5	42.5	49.4	1873564	2572	0	0	0	65.6	50.4	0.0
2024 05/17 20:15	39.6	67.8	273.0	7.8	30.25	69.3	319.1	13.03	-131.9	0	36.9	40.7	47.6	1873564	2572	0	0	0	64.4	50.1	0.0
2024 05/17 20:30	38.8	67.8	299.3	9.7	30.26	69.5	107.2	13.01	-131.8	0	-997.0	-997.0	46.5	1873564	2572	0	0	0	64.4	50.1	0.0
2024 05/17 20:45	37.8	68.4	299.9	11.9	30.26	69.5	19.0	13.02	-131.8	0	36.6	38.9	45.4	1873564	2572	0	0	0	62.7	49.6	0.0
2024 05/17 21:00	38.6	69.5	304.0	14.2	30.26	69.6	2.4	13.01	-131.8	0	37.0	38.0	44.2	1873564	2572	0	0	0	62.3	49.4	0.0
2024 05/17 21:15	37.2	71.0	307.6	13.4	30.25	69.7	0.0	13.02	-131.8	0	36.5	37.1	43.4	1873564	2572	0	0	0	60.9	49.0	0.0
2024 05/17 21:30	37.2	71.9	317.3	11.2	30.25	69.7	0.0	13.02	-131.8	0	-997.0	-997.0	42.4	1873564	2572	0	0	0	60.3	48.8	0.0
2024 05/17 21:45	37.0	71.4	308.1	9.9	30.25	69.7	0.0	12.99	-131.8	0	36.7	36.2	41.8	1873564	2572	0	0	0	59.3	48.5	0.0
2024 05/17 22:00	36.7	72.4	317.4	8.9	30.25	69.6	0.0	12.99	-131.9	0	37.0	36.2	40.5	1873564	2572	0	0	0	58.6	48.3	0.0
2024 05/17 22:15	36.5	72.7	313.2	9.2	30.25	69.6	0.0	13.02	-132.1	0	36.3	36.2	40.0	1873564	2572	0	0	0	57.7	47.9	0.0
2024 05/17 22:30	36.4	72.1	296.1	8.9	30.25	69.5	0.0	13.02	-132.2	0	-997.0	-997.0	39.8	1873564	2572	0	0	0	57.0	47.7	0.0
2024 05/17 22:45	37.3	69.7	269.1	10.7	30.24	69.5	0.0	13.03	-132.3	0	36.4	35.3	39.7	1873564	2572	0	0	0	56.2	47.5	0.0
2024 05/17 23:00	37.3	67.7	293.3	9.9	30.24	69.3	0.0	13.02	-132.4	0	36.9	35.3	39.6	1873564	2572	0	0	0	56.0	47.4	0.0
2024 05/17 23:15	36.4	70.7	281.6	9.7	30.24	69.2	0.0	12.99	-132.7	0	36.9	35.3	39.5	1873564	2572	0	0	0	54.9	46.9	0.0
2024 05/17 23:30	36.7	70.4	266.1	10.0	30.23	69.1	0.0	12.99	-132.9	0	-997.0	-997.0	39.3	1873564	2572	0	0	0	54.2	46.7	0.0
2024 05/17 23:45	36.9	71.0	243.0	10.7	30.22	68.9	0.0	13.01	-133.0	0	36.8	35.3	38.9	1873564	2572	0	0	0	53.8	46.6	0.0
2024 05/18 00:00	37.8	69.0	237.6	9.8	30.22	68.7	0.0	13.02	-133.3	0	36.6	35.3	38.8	1873564	2572	0	0	0	53.2	46.4	0.0
2024 05/18 00:15	37.5	69.3	237.0	12.4	30.21	68.4	0.0	13.00	-133.5	0	36.6	35.3	37.5	1873564	2572	0	0	0	52.7	46.1	0.0
2024 05/18 00:30	38.8	61.7	251.9	11.5	30.21	68.2	0.0	13.01	-133.7	0	-997.0	-997.0	36.6	1873564	2572	0	0	0	51.7	45.7	0.0
2024 05/18 00:45	38.1	64.0	256.0	10.4	30.21	68.0	0.0	13.01	-133.8	0	35.5	35.3	35.2	1873564	2572	0	0	0	51.4	45.6	0.0
2024 05/18 01:00	39.1	63.8	220.4	9.1	30.20	67.8	0.0	12.99	-134.0	0	36.9	35.3	35.3	1873564	2572	0	0	0	51.4	45.6	0.0
2024 05/18 01:15	38.0	59.2	248.3	8.7	30.20	67.6	0.0	13.00	-134.1	0	36.9	35.3	34.6	1873564	2572	0	0	0	50.2	45.0	0.0
2024 05/18 01:30	37.5	57.2	272.3	10.4	30.19	67.4	0.0	13.01	-134.3	0	-997.0	-997.0	33.9	1873564	2572	0	0	0	49.6	44.8	0.0
2024 05/18 01:45	37.5	59.2	277.0	10.5	30.19	67.1	0.0	13.01	-134.4	0	36.9	35.3	34.1	1873564	2572	0	0	0	49.4	44.8	0.0
2024 05/18 02:00	37.7	59.4	231.0	9.7	30.18	66.9	0.0	12.99	-134.5	0	36.2	35.3	33.9	1873564	2572	0	0	0	48.9	44.3	0.0
2024 05/18 02:15	37.7	58.2	257.7	10.7	30.18	66.7	0.0	13.01	-134.8	0	36.1	35.3	33.3	1873564	2572	0	0	0	48.8	44.2	0.0
2024 05/18 02:30	37.5	60.2	243.8	11.1	30.18	66.4	0.0	13.00	-134.9	0	-997.0	-997.0	32.6	1873564	2572	0	0	0	48.5	44.0	0.0
2024 05/18 02:45	37.3	62.1	254.8	11.9	30.17	66.2	0.0	13.01	-135.0	0	36.9	35.3	32.4	1873564	2572	0	0	0	48.2	43.9	0.0
2024 05/18 03:00	37.8	54.0	235.4	13.7	30.16	66.0	0.0	13.02	-135.1	0	36.8	36.2	32.3	1873564	2572	0	0	0	48.0	43.8	0.0
2024 05/18 03:15	37.7	50.4	239.8	14.2	30.15	65.7	0.0	13.01	-135.3	0	36.9	36.2	32.0	1873564	2572	0	0	0	47.9	43.4	0.0
2024 05/18 03:30	37.2	57.7	250.1	14.6	30.15	65.4	0.0	12.99	-135.3	0	-997.0	-997.0	32.0	1873564	2572	0	0	0	47.9	43.4	0.0
2024 05/18 03:45	36.1	64.0	246.7	11.5	30.15	65.2	0.0	13.01	-135.4	0	37.2	34.4	34.1	1873564	2572	0	0	0	47.1	43.1	0.0
2024 05/18 04:00	36.1	59.0	278.6	10.9	30.14	65.0	0.0	13.01	-135.5	0	-997.0	-997.0	35.7	1873564	2572	0	0	0	46.9	43.1	0.0
2024 05/18 04:15	35.4	66.8	264.9	10.4	30.14	64.8	0.0	12.99	-135.5	0	36.6	35.3	36.1	1873564	2572	0	0	0	46.5	42.9	0.0
2024 05/18 04:30	35.4	75.4	245.6	11.4	30.13	64.6	0.0	13.02	-135.6	0	-997.0	-997.0	35.8	1873564	2572	0	0	0	46.5	42.7	0.0
2024 05/18 04:45	35.5	73.7	250.2	10.8	30.12	64.5	0.0	13.02	-135.7	0	37.2	34.4	36.0	1873564	2572	0	0	0	46.1	42.6	0.0
2024 05/18 05:00	35.6	74.6	249.8	10.9	30.12	64.1	0.0	13.01	-135.7	0	36.8	34.4	36.2	1873564	2572	0	0	0	45.9	42.4	0.0
2024 05/18 05:15	35.5	69.7	237.3	11.5	30.11	63.9	4.1	13.00	-135.9	0	36.8	35.3	36.0	1873564	2572	0	0	0	45.5	42.3	0.0
2024 05/18 05:30	35.7	69.6	252.3	12.8	30.12	63.7	27.8	13.01	-136.0	0	-997.0	-997.0	36.2	1873564	2572	0	0	0	45.5	42.2	0.0
2024 05/18 05:45	35.5	70.7	233.0	12.8	30.11	63.5	84.8	13.02	-136.0	0	37.0	35.3	36.2	1873564	2572	0	0	0	45.2	42.1	0.0
2024 05/18 06:00	35.2	68.8	238.0	14.7	30.11	63.3	183.2	13.01	-136.1	0	36.9	34.4	36.2	1873564	2572	0	0	0	45.0	41.9	0.0
2024 05/18 06:15	34.7	73.3	234.3	15.1	30.10	63.1	347.7	13.01	-136.1	0	36.6	35.3	36.4	1873564	2572	0	0	0	44.9	41.7	0.0
2024 05/18 06:30	35.2	76.1	234.9	14.9	30.10	62.9	408.1	12.99	-136.2	0	-997.0	-997.0	37.2	1873564	2572	0	0	0	43.9	41.6	0.0
2024 05/18 06:45	34.3	75.4	239.1	15.9	30.10	62.7	475.9	12.99	-136.2	0	36.6	36.2	38.0	1873564	2572	0	0	0	43.9	41.6	0.0
2024 05/18 07:00	34.7	74.8	231.9	14.5	30.09	62.6	490.2	12.99	-136.2	0	36.7	36.2	39.5	1873564	2572	0	0	0	43.7	41.5	0.0
2024 05/18 07:15	33.8	79.0	251.2	12.6	30.09	62.5	529.2	13.01	-136.4	0	36.8	36.2	40.0	1873564	2572	0	0	0	43.5	41.4	0.0
2024 05/18 07:30	33.6	78.2	266.9	9.1	30.10	62.3	560.1	13.03	-136.4	0	-997.0	-997.0	40.5	1873564	2572	0	0	0	43.5	41.4	0.0
2024 05/18 07:45	33.9	70.8	205.9	11.3	30.10	62.2	571.6	12.99	-136.4	0	36.4	39.8	41.5	1873564	2572	0	0	0	43.5	41.4	0.0
2024 05/18 08:00	34.8	71.1	266.6	13.2	30.10	62.1	583.2	12.99	-136.5	0	36.3	39.8	42.6	1873564	2572	0	0	0	43.7	41.5	0.0
2024 05/18 08:15	34.4	75.0	307.5	7.7	30.09	62.0	592.7	13.01	-136.5	0	36.4	40.7	42.7	1873564	2572	0	0	0	44.8	41.6	0.0
2024 05/18 08:30	34.6	71.4	265.9	8.6	30.09	61.9	606.9	13.01	-136.5	0	-997.0	-997.0	43.1	1873564	2572	0	0	0	44.9	41.7	0.0
2024 05/18 08:45	35.6	67.0	268.4	6.9	30.09	61.8	628.7	13.00	-136.5	0	36.5	42.5	43.8	1873564	2572	0	0	0	44.9	41.7	0.0
2024 05/18 09:00	38.0	60.9	241.1	9.2	30.08	61.6	652.7	13.01	-136.6	0	36.4	41.6	45.0	1873564	2572	0	0	0	46.5	42.1	0.0
2024 05/18 09:15	37.6	42.5	215.5	13.7	30.08	61.6	617.5	13.02	-136.6	0	36.8	41.6	46.0	1873564	2572	0	0	0	47.4	42.4	0.0
2024 05/18 09:30	37.9	51.0	261.4	13.2	30.08	61.5	684.6	13.01	-136.6	0	-997.0	-997.0	46.5	1873564	2572	0	0	0	47.4	42.4	0.0
2024 05/18 09:45	38.4	48.4	308.6	9.4	30.07	61.4	697.2	13.01	-136.6	0	37.0	42.5	47.1	1873564	2572	0	0	0	47.2	43.5	0.0
2024 05/18 10:00	39.3	54.7	100.3	5.6	30.07	61.4	710.0	13.01	-136.6	0	37.1	42.5	47.7	1873564	2572	0	0	0	47.7	44.2	0.0
2024 05/18 10:15	39.0	55.7	285.9	11.9	30.07	61.4	721.0	13.01	-136.6	0	36.8	42.5	47.7	1873564	2572	0	0	0	49.0	45.8	0.0
2024 05/18 10:30	38.9	56.3	206.2	11.7	30.07	61.4	727.0	13.01	-136.6	0	-997.0	-997.0	48.5	1873564	2572	0	0	0	49.4	46.5	0.0
2024 05/18 10:45	39.1	55.4	219.3	16.7	30.07	61.4	719.0	13.00	-136.6	0	37.0	43.4	49.0	1873564	2572	0	0	0	50.0	47.2	0.0
2024 05/18 11:00	39.8	54.9	247.1	19.6	30.08	61.4	733.0	13.02	-136.5	0	36.4	44.3	49.5	1873564	2572	0	0	0	51.0	48.3	0.0
2024 05/18 11:15	40.2	53.8	185.7	16.5	30.07	61.5	746.0	12.99	-136.5	0	36.2	45.2	50.7	1873564	2572	0	0	0	51.5	49.3	0.0
2024 05/18 11:30	40.7	51.8	210.7	16.7	30.07	61.6	749.0	13.00	-136.5	0	-997.0	-997.0	50.5	1873564	2572	0	0	0	51.6	49.5	0.0
2024 05/18 11:45	42.8	51.4	182.5	8.5	30.08	61.6	753.0	13.00	-136.5	0	36.6	47.0	52.1	1873564	2572	0	0	0	52.4	50.3	0.0
2024 05/18 12:00	42.1	46.7	267.2	18.1	30.07	61.7	755.0	13.01	-136.5	0	-997.0	-997.0	52.3	1873564	2572	0	0	0	53.2	51.3	0.0
2024 05/18 12:15	43.7	48.2	338.9	12.0	30.07	61.9	757.0	13.01	-136.4	0	36.4	47.0	52.4	1873564	2572	0	0	0	54.6	51.6	0.0
2024 05/18 12:30	41.6	50.4	264.4	21.8	30.07	62.0	761.0	13.01	-136.4	0	-997.0	-997.0	53.0	1873564	2572	0	0	0	54.9	51.7	0.0
2024 05/18 12:45	43.8	43.1	299.1	15.3	30.07	62.0	764.0	13.00	-136.4	0	36.6	47.0	53.0	1873564	2572	0	0	0	55.7	51.9	0.0
2024 05/18 13:00	44.0	47.4	301.1	7.3	30.08	62.1	759.0	13.03	-136.4	0	36.4	47.0	53.4	1873564	2572	0	0	0	56.4	51.9	0.0
2024 05/18 13:15	43.2	49.0	62.4	14.5	30.08	62.2	757.0	12.99	-136.2	0	36.2	47.9	53.0	1873564	2572	0	0	0	57.0	51.9	0.0
2024 05/18 13:30	42.1	49.9	286.7	19.6	30.08	62.3	754.0	12.99	-136.2	0	-997.0	-997.0	52.9	1873564	2572	0	0	0	56.5	52.0	0.0
2024 05/18 13:45	42.1	50.8	216.6	16.2	30.08	62.4	756.0	13.01	-136.2	0	35.0	47.0	54.3	1873564	2572	0	0	0	57.8	51.9	0.0
2024 05/18 14:00	41.3	51.8	36.0	12.7	30.08	62.4	766.0	13.01	-136.2	0	35.9	46.1	53.5	1873564	2572	0	0	0	58.7	51.6	0.0
2024 05/18 14:15	41.1	51.0	338.3	18.5	30.08	62.6	771.0	12.99	-136.1	0	36.1	47.0	51.9	1873564	2572	0	0	0	60.4	51.4	0.0
2024 05/18 14:30	42.9	49.1	166.8	8.6	30.08	62.6	773.0	13.02	-136.1	0	-997.0	-997.0	52.2	1873564	2572	0	0	0	61.2	50.9	0.0
2024 05/18 14:45	41.3	54.1	338.0	14.7	30.09	62.9	773.0	12.99	-136.1	0	34.9	46.1	52.4	1873564	2572	0	0	0	61.8	50.5	0.0
2024 05/18 15:00	41.9	53.7	205.4	15.2	30.08	63.0	771.0	13.02	-136.0	0	35.4	46.1	52.6	1873564	2572	0	0	0	61.8	50.2	0.0
2024 05/18 15:15	41.0	49.3	320.6	14.1	30.08	63.1	770.0	12.98	-136.0	0	36.1	45.2	54.2	1873564	2572	0	0	0	62.1	49.8	0.0
2024 05/18 15:30	40.5	51.0	280.4	20.6	30.08	63.3	769.0	13.00	-136.0	0	-997.0	-997.0	56.2	1873564	2572	0	0	0	62.1	49.6	0.0
2024 05/18 15:45	41.6	51.7	242.9	12.9	30.09	63.4	768.0	12.99	-135.9	0	35.2	44.3	56.0	1873564	2572	0	0	0	61.7	49.4	0.0
2024 05/18 16:00	41.2	54.1	298.4	16.0	30.08	63.5	766.0	13.02	-135.9	0	35.1	45.2	57.0	1873564	2572	0	0	0	61.4	49.4	0.0
2024 05/18 16:15	41.3	54.8	314.5	10.2	30.09	63.7	761.0	13.01	-135.9	0	35.0	44.3	56.9	1873564	2572	0	0	0	61.7	49.3	0.0
2024 05/18 16:30	40.6	56.6	280.7	19.5	30.08	63.9	757.0	13.03	-135.7	0	-997.0	-997.0	56.6	1873564	2572	0	0	0	62.1	49.2	0.0
2024 05/18 16:45	40.4	60.2	283.2	15.7	30.08	64.0	751.0	13.01	-135.6	0	34.2	44.3	58.3	1873564	2572	0	0	0	62.9	48.9	0.0
2024 05/18 17:00	39.7	66.2	303.8	16.9	30.09	64.2	750.0	13.01	-135.6	0	34.6	43.4	57.8	1873564	2572	0	0	0	63.0	48.7	0.0
2024 05/18 17:15	40.0	65.1	3.5	15.5	30.09	64.5	738.0	13.01	-135.5	0	32.9	43.4	58.7	1873564	2572	0	0	0	62.8	48.6	0.0
2024 05/18 17:30	39.3	69.5	291.2	13.2	30.09	64.7	720.0	13.00	-135.4	0	-997.0	-997.0	61.8	1873564	2572	0	0	0	62.7	48.6	0.0
2024 05/18 17:45	38.1	69.2	246.6	22.6	30.09	64.9	708.0	13.00	-135.3	0	34.7	41.6	63.3	1873564	2572	0	0	0	62.5	48.5	0.0
2024 05/18 18:00	37.2	73.6	194.0	20.7	30.10	65.1	706.0	13.01	-135.1	0	35.2	39.8	57.5	1873564	2572	0	0	0	62.0	48.4	0.0
2024 05/18 18:15	36.6	75.6	114.9	19.1	30.10	65.4	670.3	12.98	-135.0	0	34.9	40.7	60.9	1873564	2572	0	0	0	61.5	48.3	0.0
2024 05/18 18:30	34.7	81.0	275.6	21.2	30.10	65.6	319.9	13.02	-134.9	0	-997.0	-997.0	51.6	1873564	2572	0	0	0	61.3	48.3	0.0
2024 05/18 18:45	34.1	86.2	259.4	20.6	30.11	65.8	429.8	13.01	-134.8	0	34.9	37.1	47.8	1873564	2572	0	0	0	60.4	47.9	0.0
2024 05/18 19:00	33.8	85.5	208.0	16.7	30.12	66.0	260.9	13.00	-134.8	0	34.4	36.2	45.3	1873564	2572	0	0	0	59.5	47.6	0.0
2024 05/18 19:15	33.6	83.7	276.7	17.4	30.13	66.2	192.0	13.00	-134.6	0	34.4	36.2	44.8	1873564	2572	0	0	0	59.6	47.4	0.0
2024 05/18 19:30	33.4	87.6	253.1	12.7	30.13	66.2	191.3	13.00	-134.6	0	-997.0	-997.0	43.9	1873564	2572	0	0	0	63.0	47.1	0.0
2024 05/18 19:45	33.0	88.7	240.2	19.1	30.12	66.3	159.1	13.00	-134.6	0	34.2	35.3	44.2	1873564	2572	0	0	0	65.8	47.0	0.0
2024 05/18 20:00	32.7	91.9	252.9	17.8	30.13	66.3	78.7	12.99	-134.6	0	34.1	35.3	44.1	1873564	2572	0	0	0	70.4	46.7	0.0
2024 05/18 20:15	32.2	98.7	276.7	17.3	30.12	66.3	86.8	12.99	-134.8	0	34.3	34.4	42.6	1873564	2572	0	0	0	71.5	46.5	0.0
2024 05/18 20:30	31.9	99.5	286.8	17.9	30.11	66.3	35.3	13.00	-134.8	0	-997.0	-997.0	42.2	1873564	2572	0	0	0	73.0	46.2	0.0
2024 05/18 20:45	31.7	98.9	249.8	14.6	30.12	66.3	6.8	12.99	-134.9	0	34.5	34.4	41.2	1873564	2572	0	0	0	74.4	46.1	0.0
2024 05/18 21:00	31.7	99.3	252.4	21.9	30.12	66.2	0.7	12.99	-134.9	0	34.0	34.4	42.2	1873564	2572	0	0	0	75.9	45.8	0.0
2024 05/18 21:15	31.2	100.1	279.3	20.5	30.12	66.1	0.0	13.03	-135.0	0	34.6	33.5	42.1	1873564	2572	0	0	0	77.3	45.6	0.0
2024 05/18 21:30	31.3	100.7	264.0	15.7	30.12	66.0	0.0	12.99	-135.1	0	-997.0	-997.0	41.6	1873564	2572	0	0	0	77.9	45.5	0.0
2024 05/18 21:45	30.3	100.1	290.6	16.2	30.14	65.8	0.0	13.00	-135.1	0	34.1	32.6	41.5	1873564	2572	0	0	0	77.9	45.1	0.0
2024 05/18 22:00	29.9	100.1	295.5	12.2	30.14	65.6	0.0	13.02	-135.3	0	34.6	31.7	40.2	1873564	2572	0	0	0	77.2	45.0	0.0
2024 05/18 22:15	29.5	100.1	116.4	14.7	30.14	65.5	0.0	13.00	-135.4	0	33.6	31.7	39.1	1873564	2572	0	0	0	76.3	44.9	0.0
2024 05/18 22:30	29.4	100.1	325.3	7.5	30.15	65.3	0.0	12.99	-135.5	0	-997.0	-997.0	39.1	1873564	2572	0	0	0	75.5	44.8	0.0
2024 05/18 22:45	29.1	100.1	243.4	12.0	30.15	65.0	0.0	13.02	-135.6	0	33.9	30.8	38.0	1873564	2572	0	0	0	74.4	44.7	0.0
2024 05/18 23:00	29.0	100.1	241.9	12.9	30.14	64.8	0.0	13.02	-135.6	0	33.7	30.8	38.5	1873564	2572	0	0	0	73.6	44.5	0.0
2024 05/18 23:15	29.7	100.7	282.3	16.9	30.14	64.6	0.0	12.99	-135.7	0	33.6	30.8	39.3	1873564	2572	0	0	0	72.3	44.4	0.0
2024 05/18 23:30	28.6	100.1	319.7	9.7	30.14	64.3	0.0	13.00	-135.9	0	-997.0	-997.0	38.6	1873564	2572	0	0	0	71.7	44.2	0.0
2024 05/18 23:45	28.6	100.1	260.6	10.2	30.14	64.1	0.0	13.01	-136.0	0	33.6	30.8	38.5	1873564	2572	0	0	0	70.5	44.1	0.0
2024 05/19 00:00	28.5	100.1	219.9	6.2	30.14	63.8	0.0	13.01	-136.0	0	33.5	30.8	37.7	1873564	2572	0	0	0	69.6	43.9	0.0
2024 05/19 00:15	28.6	100.1	235.3	5.1	30.14	63.5	0.0	13.02	-136.1	0	33.6	30.8	37.9	1873564	2572	0	0	0	68.6	43.8	0.0
2024 05/19 00:30	28.5	100.1	46.5	9.5	30.14	63.3	0.0	13.02	-136.2	0	-997.0	-997.0	37.7	1873564	2572	0	0	0	68.1	43.7	0.0
2024 05/19 00:45	28.1	100.1	203.1	6.5	30.14	63.1	0.0	13.00	-136.2	0	33.6	29.9	37.1	1873564	2572	0	0	0	67.8	43.7	0.0
2024 05/19 01:00	28.1	100.1	285.0	5.9	30.14	62.7	0.0	13.02	-136.4	0	33.6	29.9	36.9	1873564	2572	0	0	0	67.8	43.7	0.0
2024 05/19 01:15	28.3	100.1	263.8	10.1	30.13	62.4	0.0	13.00	-136.5	0	33.6	29.9	36.8	1873564	2572	0	0	0	67.8	43.7	0.0
2024 05/19 01:30	28.3	100.1	322.1	7.8	30.13	62.3	0.0	13.00	-136.5	0	-997.0	-997.0	36.8	1873564	2572	0	0	0	67.8	43.7	0.0
2024 05/19 01:45	28.1	100.1	214.2	10.4	30.12	61.9	0.0	13.00	-136.6	0	33.5	29.9	36.1	1873564	2572	0	0	0	72.0	43.1	0.0
2024 05/19 02:00	28.0	100.1	284.2	8.1	30.13	61.6	0.0	12.99	-136.6	0	33.5	29.9	36.4	1873564	2572	0	0	0	73.9	43.0	0.0
2024 05/19 02:15	27.9	100.1	241.7	8.3	30.13	61.4	0.0	13.01	-136.7	0	33.1	29.9	36.6	1873564	2572	0	0	0	75.6	42.9	0.0
2024 05/19 02:30	27.1	100.1	283.6	10.5	30.12	61.2	0.0	13.01	-136.7	0	-997.0	-997.0	35.7	1873564	2572	0	0	0	76.6	42.7	0.0
2024 05/19 02:45	27.1	100.1	317.6	10.5	30.12	60.9	0.0	13.03	-136.7	0	32.5	29.0	34.6	1873564	2572	0	0	0	77.4	42.6	0.0
2024 05/19 03:00	27.2	100.2	307.8	10.0	30.12	60.6	0.0	13.01	-136.9	0	32.9	29.0	35.0	1873564	2572	0	0	0	77.9	42.5	0.0
2024 05/19 03:15	27.2	100.1	286.5	9.8	30.12	60.4	0.0	13.01	-136.9	0	32.4	29.0	35.7	1873564	2572	0	0	0	78.0	42.4	0.0
2024 05/19 03:30	26.9	100.1	265.4	6.8	30.12	60.1	0.0	13.01	-137.0	0	-997.0	-997.0	35.3	1873564	2572	0	0	0	77.6	42.3	0.0
2024 05/19 03:45	26.6	100.1	117.6	6.4	30.12	59.9	0.0	12.99	-137.0	0	32.6	29.0	35.0	1873564	2572	0	0	0	77.2	42.2	0.0
2024 05/19 04:00	26.4	100.1	243.7	10.2	30.12	59.6	0.0	13.00	-137.0	0	32.5	29.0	35.4	1873564	2572	0	0	0	76.3	42.2	0.0
2024 05/19 04:15	26.4	100.1	286.2	5.2	30.12	59.3	0.0	12.99	-137.1	0	32.4	28.1	34.9	1873564	2572	0	0	0	75.0	42.0	0.0
2024 05/19 04:30	26.3	100.1	275.8	7.9	30.11	59.1	0.0	13.00	-137.1	0	-997.0	-997.0	35.2	1873564	2572	0	0	0	74.1	42.0	0.0
2024 05/19 04:45	27.4	100.6	292.7	8.5	30.11	58.9	0.0	13.01	-137.1	0	32.9	28.1	34.6	1873564	2572	0	0	0	73.2	41.9	0.0
2024 05/19 05:00	26.7	100.2	264.0	5.6	30.11	58.6	0.0	13.01	-137.2	0	32.7	28.1	34.6	1873564	2572	0	0	0	73.2	41.9	0.0
2024 05/19 05:15	26.3	100.1	306.0	7.1	30.11	58.4	5.4	13.00	-137.2	0	32.9	28.1	34.4	1873564	2572	0	0	0	71.9	41.7	0.0
2024 05/19 05:30	26.3	100.1	281.9	6.0	30.11	58.1	36.6	13.01	-137.2	0	-997.0	-997.0	34.3	1873564	2572	0	0	0	71.5	41.6	0.0
2024 05/19 05:45	26.2	100.1	283.1	7.5	30.11	57.8	125.5	12.99	-137.2	0	33.2	28.1	33.6	1873564	2572	0	0	0	70.4	41.5	0.0
2024 05/19 06:00	26.6	100.1	283.8	5.5	30.11	57.6	227.3	13.00	-137.2	0	30.3	28.1	34.8	1873564	2572	0	0	0	69.5	41.5	0.0
2024 05/19 06:15	26.1	100.1	317.4	8.1	30.11	57.4	553.4	12.99	-137.3	0	-999.9	-999.9	34.3	1873564	2572	0	0	0	68.5	41.4	0.0
2024 05/19 06:30	25.9	100.1	285.0	8.5	30.11	57.1	575.1	13.01	-137.3	0	-997.0	-997.0	34.5	1873564	2572	0	0	0	68.3	41.5	0.0
2024 05/19 06:45	25.9	100.2	285.7	11.2	30.11	56.9	553.4	13.01	-137.3	0	-999.9	-999.9	35.7	1873564	2572	0	0	0	66.8	41.4	0.0
2024 05/19 07:00	26.3	100.1	313.1	11.5	30.11	56.7	606.6	12.99	-137.3	0	-999.9	-999.9	35.9	1873564	2572	0	0	0	66.1	41.3	0.0
2024 05/19 07:15	26.3	100.1	298.6	9.2	30.10	56.5	613.4	13.01	-137.5	0	-999.9	-999.9	36.2	1873564	2572	0	0	0	65.5	41.3	0.0
2024 05/19 07:30	25.9	100.1	295.0	10.0	30.11	56.3	626.0	13.01	-137.5	0	-997.0	-997.0	36.8	1873564	2572	0	0	0	64.8	41.2	0.0
2024 05/19 07:45	26.2	100.1	323.2	8.3	30.12	56.3	568.6	12.99	-137.5	0	-999.9	-999.9	37.9	1873564	2572	0	0	0	64.4	41.2	0.0
2024 05/19 08:00	27.2	100.7	288.2	8.7	30.12	56.1	582.9	12.99	-137.5	0	30.6	29.9	35.5	1873564	2573	0	0	0	63.5	41.1	0.0
2024 05/19 08:15	26.1	100.1	304.5	9.1	30.13	55.9	622.6	13.02	-137.5	0	31.7	30.8	36.0	1873564	2573	0	0	0	62.8	41.2	0.0
2024 05/19 08:30	26.9	100.1	271.2	5.5	30.13	55.9	643.3	13.01	-137.5	0	-997.0	-997.0	36.7	1873564	2573	0	0	0	62.3	41.2	0.0
2024 05/19 08:45	27.2	100.1	312.9	4.9	30.13	55.6	533.7	13.02	-137.5	0	30.5	31.7	38.1	1873564	2573	0	0	0	61.8	41.3	0.0
2024 05/19 09:00	27.5	100.1	109.0	4.0	30.14	55.6	623.9	13.02	-137.5	0	-999.9	-999.9	40.8	1873564	2573	0	0	0	61.7	41.4	0.0
2024 05/19 09:15	26.8	100.1	298.0	7.9	30.14	55.4	576.4	13.02	-137.5	0	32.6	33.5	40.9	1873564	2573	0	0	0	61.4	41.5	0.0
2024 05/19 09:30	26.7	100.1	316.2	9.9	30.14	55.4	683.0	12.99	-137.5	0	-997.0	-997.0	41.4	1873564	2573	0	0	0	62.1	42.1	0.0
2024 05/19 09:45	26.6	100.1	320.5	10.8	30.14	55.3	646.6	13.00	-137.5	0	34.2	36.2	39.5	1873564	2573	0	0	0	61.9	42.6	0.0
2024 05/19 10:00	28.0	100.6	301.5	8.8	30.14	55.2	580.5	13.01	-137.5	0	32.3	34.4	39.4	1873564	2573	0	0	0	61.9	42.6	0.0
2024 05/19 10:15	27.2	100.1	346.3	13.9	30.14	55.2	757.0	12.98	-137.5	0	34.1	35.3	40.7	1873564	2573	0	0	0	62.7	43.3	0.0
2024 05/19 10:30	28.4	100.1	317.5	8.2	30.14	55.2	740.0	13.00	-137.5	0	-997.0	-997.0	42.1	1873564	2573	0	0	0	62.9	44.0	0.0
2024 05/19 10:45	28.5	100.1	334.3	18.5	30.14	55.2	731.0	13.00	-137.5	0	34.5	37.1	42.3	1873564	2573	0	0	0	63.6	44.8	0.0
2024 05/19 11:00	29.3	86.9	305.7	18.2	30.14	55.2	759.0	13.00	-137.5	0	34.6	38.0	41.3	1873564	2573	0	0	0	64.1	45.3	0.0
2024 05/19 11:15	30.4	93.1	229.1	10.7	30.15	55.2	740.0	13.00	-137.5	0	34.3	37.1	43.3	1873564	2573	0	0	0	64.6	46.0	0.0
2024 05/19 11:30	31.9	90.0	16.4	9.1	30.15	55.4	746.0	12.99	-137.5	0	-997.0	-997.0	43.9	1873564	2573	0	0	0	65.0	46.2	0.0
2024 05/19 11:45	33.3	87.9	337.5	7.5	30.15	55.4	763.0	13.01	-137.5	0	33.9	40.7	45.2	1873564	2573	0	0	0	65.8	46.8	0.0
2024 05/19 12:00	31.7	82.8	332.9	12.8	30.16	55.6	685.7	13.01	-137.5	0	34.9	38.9	43.1	1873564	2573	0	0	0	65.9	46.9	0.0
2024 05/19 12:15	32.5	85.8	300.6	11.1	30.16	55.6	627.0	13.01	-137.5	0	34.8	38.0	42.7	1873564	2573	0	0	0	66.1	47.1	0.0
2024 05/19 12:30	34.5	83.2	307.0	8.7	30.16	55.9	792.0	12.99	-137.5	0	-997.0	-997.0	48.8	1873564	2573	0	0	0	66.4	47.5	0.0
2024 05/19 12:45	32.4	83.3	320.1	7.8	30.17	56.0	792.0	13.01	-137.5	0	34.7	39.8	45.7	1873564	2573	0	0	0	66.8	47.7	0.0
2024 05/19 13:00	33.4	77.2	330.1	10.6	30.17	56.1	645.6	13.01	-137.5	0	34.8	38.9	47.4	1873564	2573	0	0	0	67.3	48.0	0.0
2024 05/19 13:15	34.4	76.1	289.4	12.8	30.17	56.3	667.0	13.03	-137.3	0	34.7	41.6	48.7	1873564	2573	0	0	0	67.4	48.3	0.0
2024 05/19 13:30	35.4	71.7	219.7	5.8	30.17	56.3	662.3	12.99	-137.3	0	-997.0	-997.0	47.4	1873564	2573	0	0	0	67.4	48.3	0.0
2024 05/19 13:45	35.5	73.0	320.7	9.4	30.17	56.5	709.0	13.02	-137.3	0	35.3	40.7	46.2	1873564	2573	0	0	0	67.2	48.2	0.0
2024 05/19 14:00	35.1	67.5	304.2	9.1	30.17	56.7	746.0	13.03	-137.3	0	35.0	40.7	50.7	1873564	2573	0	0	0	67.2	48.0	0.0
2024 05/19 14:15	33.8	67.5	324.3	18.6	30.17	56.7	631.7	12.99	-137.3	0	34.4	39.8	45.1	1873564	2573	0	0	0	66.6	48.0	0.0
2024 05/19 14:30	34.4	69.3	320.2	15.8	30.18	56.9	647.7	13.01	-137.3	0	-997.0	-997.0	45.8	1873564	2573	0	0	0	66.6	47.8	0.0
2024 05/19 14:45	34.9	62.1	300.7	15.1	30.18	57.1	662.9	13.01	-137.3	0	33.1	40.7	47.8	1873564	2573	0	0	0	66.7	47.8	0.0
2024 05/19 15:00	36.3	67.2	268.0	11.7	30.18	57.1	660.2	12.99	-137.3	0	33.4	39.8	46.8	1873564	2573	0	0	0	67.2	47.7	0.0
2024 05/19 15:15	35.5	66.8	303.6	10.7	30.19	57.4	686.0	13.01	-137.2	0	34.5	39.8	45.3	1873564	2573	0	0	0	67.2	47.7	0.0
2024 05/19 15:30	35.0	72.0	316.8	13.7	30.18	57.6	650.7	13.01	-137.2	0	-997.0	-997.0	48.4	1873564	2573	0	0	0	66.8	47.5	0.0
2024 05/19 15:45	35.1	67.0	259.7	14.5	30.19	57.6	694.1	13.03	-137.2	0	34.4	39.8	48.1	1873564	2573	0	0	0	66.7	47.5	0.0
2024 05/19 16:00	35.4	71.2	295.8	9.2	30.19	57.8	584.2	13.00	-137.2	0	34.3	38.9	47.6	1873564	2573	0	0	0	66.4	47.4	0.0
2024 05/19 16:15	36.0	61.1	291.5	7.4	30.19	58.0	755.0	12.99	-137.2	0	34.4	40.7	52.4	1873564	2573	0	0	0	65.5	47.2	0.0
2024 05/19 16:30	37.1	64.3	343.1	8.6	30.19	58.1	761.0	13.01	-137.2	0	-997.0	-997.0	55.3	1873564	2573	0	0	0	65.6	47.1	0.0
2024 05/19 16:45	39.6	58.4	310.8	10.6	30.19	58.2	643.6	13.02	-137.1	0	34.2	42.5	49.3	1873564	2573	0	0	0	66.1	47.1	0.0
2024 05/19 17:00	38.2	62.5	307.1	7.9	30.19	58.4	766.0	13.02	-137.1	0	34.5	42.5	49.8	1873564	2573	0	0	0	65.8	46.9	0.0
2024 05/19 17:15	38.9	62.3	304.8	8.8	30.19	58.4	735.0	13.01	-137.1	0	34.6	41.6	53.2	1873564	2573	0	0	0	65.8	46.8	0.0
2024 05/19 17:30	38.3	60.7	308.2	8.2	30.19	58.6	735.0	12.99	-137.1	0	-997.0	-997.0	55.7	1873564	2573	0	0	0	65.6	46.8	0.0
2024 05/19 17:45	35.4	66.4	304.2	12.5	30.20	58.9	567.3	12.99	-137.1	0	34.4	39.8	48.4	1873564	2573	0	0	0	65.5	46.7	0.0
2024 05/19 18:00	35.0	69.8	307.7	13.5	30.19	58.9	579.5	13.02	-137.1	0	34.8	38.9	48.9	1873564	2573	0	0	0	65.1	46.5	0.0
2024 05/19 18:15	35.0	72.9	249.3	15.9	30.19	59.1	442.4	13.01	-137.0	0	34.7	38.9	47.4	1873564	2573	0	0	0	64.5	46.5	0.0
2024 05/19 18:30	35.4	74.1	308.7	18.7	30.19	59.3	614.1	12.99	-137.0	0	-997.0	-997.0	53.1	1873564	2573	0	0	0	64.2	46.4	0.0
2024 05/19 18:45	34.6	76.3	290.9	14.9	30.19	59.5	614.8	12.99	-137.0	0	34.7	38.9	56.2	1873564	2573	0	0	0	63.6	46.2	0.0
2024 05/19 19:00	33.9	80.5	307.8	18.6	30.20	59.6	612.7	13.01	-137.0	0	34.7	38.0	51.5	1873564	2573	0	0	0	63.0	46.0	0.0
2024 05/19 19:15	33.8	82.3	322.9	20.2	30.19	59.7	610.7	13.00	-136.9	0	34.6	38.0	46.3	1873564	2573	0	0	0	62.4	45.8	0.0
2024 05/19 19:30	33.0	83.4	325.0	20.6	30.19	59.9	466.2	13.02	-136.9	0	-997.0	-997.0	43.8	1873564	2573	0	0	0	61.8	45.6	0.0
2024 05/19 19:45	33.5	89.8	308.4	17.6	30.20	60.1	436.6	12.99	-136.9	0	34.8	35.3	42.4	1873564	2573	0	0	0	60.9	45.3	0.0
2024 05/19 20:00	32.2	92.6	326.3	18.8	30.21	60.2	261.9	12.99	-136.7	0	34.7	35.3	41.5	1873564	2573	0	0	0	60.3	45.1	0.0
2024 05/19 20:15	31.7	98.0	323.2	19.1	30.20	60.4	180.5	12.99	-136.7	0	34.8	34.4	39.6	1873564	2573	0	0	0	59.3	44.9	0.0
2024 05/19 20:30	31.3	100.2	307.9	19.5	30.20	60.6	49.9	12.99	-136.7	0	-997.0	-997.0	40.3	1873564	2573	0	0	0	58.6	44.7	0.0
2024 05/19 20:45	31.1	100.2	315.9	22.4	30.20	60.6	9.2	12.99	-136.7	0	34.9	33.5	39.4	1873564	2573	0	0	0	57.6	44.4	0.0
2024 05/19 21:00	31.0	100.1	306.3	20.4	30.21	60.8	1.4	13.01	-136.7	0	34.7	33.5	39.6	1873564	2573	0	0	0	56.8	44.3	0.0
2024 05/19 21:15	30.7	100.2	326.8	17.3	30.21	60.8	0.0	13.02	-136.7	0	34.9	32.6	40.0	1873564	2573	0	0	0	55.9	44.1	0.0
2024 05/19 21:30	30.7	100.2	322.1	16.6	30.22	60.8	0.0	12.99	-136.7	0	-997.0	-997.0	38.7	1873564	2573	0	0	0	55.4	43.9	0.0
2024 05/19 21:45	30.5	100.1	300.5	19.1	30.22	60.8	0.0	13.02	-136.7	0	34.9	31.7	37.0	1873564	2573	0	0	0	55.0	43.8	0.0
2024 05/19 22:00	30.5	100.1	319.8	12.0	30.22	60.8	0.0	13.02	-136.7	0	34.9	31.7	36.8	1873564	2573	0	0	0	54.0	43.5	0.0

Where:
  YYYY   = Year
  MM/DD  = Month / Date
  hh:mm  = Hour  : Minute
  Temp   = Temperature outside       (F)              @ 5720', on tower
  Humid  = Humidity    outside       (%)              @ 5720'
  W_dir  = Wind direction / Azimuth  (degrees)        @ 5720'
  W_spd  = Wind speed                (miles per hour) @ 5720'
  Barom  = Sea-level air pressure    (inches of mercury)
  T_int  = Temperature (internal)    (F)              - inside barometer case
  Light  = Outside light level       (no units)       - 0 = dark, 1000 = bright
  Power  = Power supply rail         (Volts)
  Temp2  = Temperature (back-up)     (F)
  P2     = datalogger counter channel "P2" (to be static burst counter)
  Snow   = Snow depth,  mid-mountain (inches)         @ 5010'
  T_mid  = Temperature, mid-mountain (F)              @ 5010'
  T_base = Temperature @ south lodge (F)              @ 4700'
  Precip = Precipitation total       (inches)         @ 4800' (near US20 mp81)

Notes:
1999 07/17
   Barometric data in this listing should have an additional
   temperature correction applied to it, based on the sensor's
   internal temperature:

   P_corrected = Barom + (-0.0223 * T_int) + 0.8887  (inches Hg)

2004 07/03
   The air pressure correction equation has not been checked
   in a long time.  The air pressure reading is best used only
   to observe general trends.

2006 11/18
   Added precipitation gauge.  Depth is precipitation equivalent in water,
   for the water year (beginning October 1st) at the Hogg Pass
   SnoTel station.

2011 03/11
  Fixed data column title bug from adding "T_base" after "T_mid".
  If you notice a bug like this it will get fixed a whole lot sooner
  if you tell me about it.